Observation data for Goodnight on 07/06/2020      Previous  Date       Current Mesonet Observations  Soil Data  Daily Summary Page  Observations in Plain Language
KGO1 060500Z 09005KT 21/19 A3005 RMK A01 T02090193  RH  091%=      5-min Rain = 0
KGO1 060501Z 09005KT 21/19 A3005 RMK A01 T02090193  RH  091%=      5-min Rain = 0
KGO1 060502Z 09005KT 21/19 A3005 RMK A01 T02100193  RH  090%=      5-min Rain = 0
KGO1 060503Z 09005KT 21/19 A3005 RMK A01 T02100194  RH  090%=      5-min Rain = 0
KGO1 060504Z 09005KT 21/19 A3005 RMK A01 T02100194  RH  090%=      5-min Rain = 0
KGO1 060505Z 09004KT 21/19 A3005 RMK A01 T02110194  RH  090%=      5-min Rain = 0
KGO1 060506Z 10005KT 21/19 A3005 RMK A01 T02110194  RH  090%=      5-min Rain = 0
KGO1 060507Z 10005KT 21/20 A3005 RMK A01 T02110195  RH  090%=      5-min Rain = 0
KGO1 060508Z 09005KT 21/20 A3005 RMK A01 T02110195  RH  090%=      5-min Rain = 0
KGO1 060509Z 09005KT 21/20 A3005 RMK A01 T02110195  RH  090%=      5-min Rain = 0
KGO1 060510Z 10005KT 21/20 A3005 RMK A01 T02110195  RH  090%=      5-min Rain = 0
KGO1 060511Z 10006KT 21/20 A3005 RMK A01 T02120195  RH  090%=      5-min Rain = 0
KGO1 060512Z 10005KT 21/20 A3005 RMK A01 T02110195  RH  091%=      5-min Rain = 0
KGO1 060513Z 10005KT 21/20 A3005 RMK A01 T02120195  RH  090%=      5-min Rain = 0
KGO1 060514Z 09004KT 21/20 A3005 RMK A01 T02120196  RH  090%=      5-min Rain = 0
KGO1 060515Z 09005KT 21/20 A3005 RMK A01 T02120195  RH  090%=      5-min Rain = 0
KGO1 060516Z 09004KT 21/20 A3005 RMK A01 T02120196  RH  090%=      5-min Rain = 0
KGO1 060517Z 09004KT 21/20 A3005 RMK A01 T02120196  RH  091%=      5-min Rain = 0
KGO1 060518Z 09004KT 21/20 A3005 RMK A01 T02120196  RH  091%=      5-min Rain = 0
KGO1 060519Z 09004KT 21/20 A3006 RMK A01 T02120196  RH  091%=      5-min Rain = 0
KGO1 060520Z 09005KT 21/20 A3006 RMK A01 T02120196  RH  091%=      5-min Rain = 0
KGO1 060521Z 08005KT 21/20 A3006 RMK A01 T02120196  RH  090%=      5-min Rain = 0
KGO1 060522Z 08004KT 21/20 A3006 RMK A01 T02120196  RH  090%=      5-min Rain = 0
KGO1 060523Z 08005KT 21/20 A3006 RMK A01 T02120196  RH  090%=      5-min Rain = 0
KGO1 060524Z 08006KT 21/20 A3006 RMK A01 T02120196  RH  090%=      5-min Rain = 0
KGO1 060525Z 08005KT 21/20 A3006 RMK A01 T02130196  RH  090%=      5-min Rain = 0
KGO1 060526Z 08004KT 21/20 A3006 RMK A01 T02130196  RH  090%=      5-min Rain = 0
KGO1 060527Z 08004KT 21/20 A3005 RMK A01 T02130196  RH  090%=      5-min Rain = 0
KGO1 060528Z 07004KT 21/20 A3005 RMK A01 T02130196  RH  090%=      5-min Rain = 0
KGO1 060529Z 08004KT 21/20 A3005 RMK A01 T02130196  RH  090%=      5-min Rain = 0
KGO1 060530Z 08005KT 21/20 A3005 RMK A01 T02130196  RH  090%=      5-min Rain = 0
KGO1 060531Z 07005KT 21/20 A3005 RMK A01 T02120196  RH  090%=      5-min Rain = 0
KGO1 060532Z 07005KT 21/20 A3005 RMK A01 T02120196  RH  090%=      5-min Rain = 0
KGO1 060533Z 06004KT 21/20 A3005 RMK A01 T02120196  RH  090%=      5-min Rain = 0
KGO1 060534Z 06005KT 21/20 A3005 RMK A01 T02120196  RH  091%=      5-min Rain = 0
KGO1 060535Z 06006KT 21/20 A3005 RMK A01 T02120195  RH  090%=      5-min Rain = 0
KGO1 060536Z 06006KT 21/20 A3005 RMK A01 T02120195  RH  090%=      5-min Rain = 0
KGO1 060537Z 06005KT 21/20 A3005 RMK A01 T02120196  RH  090%=      5-min Rain = 0
KGO1 060538Z 06005KT 21/20 A3005 RMK A01 T02110195  RH  090%=      5-min Rain = 0
KGO1 060539Z 06005KT 21/20 A3005 RMK A01 T02110195  RH  091%=      5-min Rain = 0
KGO1 060540Z 05005KT 21/20 A3005 RMK A01 T02110195  RH  091%=      5-min Rain = 0
KGO1 060541Z 05005KT 21/20 A3005 RMK A01 T02110195  RH  091%=      5-min Rain = 0
KGO1 060542Z 05005KT 21/20 A3005 RMK A01 T02100195  RH  091%=      5-min Rain = 0
KGO1 060543Z 05005KT 21/20 A3005 RMK A01 T02110196  RH  091%=      5-min Rain = 0
KGO1 060544Z 05006KT 21/20 A3005 RMK A01 T02100195  RH  091%=      5-min Rain = 0
KGO1 060545Z 05006KT 21/20 A3005 RMK A01 T02100195  RH  091%=      5-min Rain = 0
KGO1 060546Z 05006KT 21/20 A3005 RMK A01 T02100196  RH  091%=      5-min Rain = 0
KGO1 060547Z 06006KT 21/20 A3005 RMK A01 T02100196  RH  091%=      5-min Rain = 0
KGO1 060548Z 05005KT 21/20 A3005 RMK A01 T02100196  RH  092%=      5-min Rain = 0
KGO1 060549Z 05005KT 21/20 A3005 RMK A01 T02100195  RH  092%=      5-min Rain = 0
KGO1 060550Z 05005KT 21/20 A3005 RMK A01 T02100195  RH  091%=      5-min Rain = 0
KGO1 060551Z 06005KT 21/20 A3005 RMK A01 T02090195  RH  092%=      5-min Rain = 0
KGO1 060552Z 05005KT 21/20 A3005 RMK A01 T02090195  RH  092%=      5-min Rain = 0
KGO1 060553Z 06005KT 21/20 A3005 RMK A01 T02090195  RH  092%=      5-min Rain = 0
KGO1 060554Z 06005KT 21/20 A3005 RMK A01 T02080195  RH  092%=      5-min Rain = 0
KGO1 060555Z 06005KT 21/19 A3005 RMK A01 T02080194  RH  092%=      5-min Rain = 0
KGO1 060556Z 06006KT 21/19 A3005 RMK A01 T02080194  RH  092%=      5-min Rain = 0
KGO1 060557Z 07005KT 21/19 A3005 RMK A01 T02080194  RH  092%=      5-min Rain = 0
KGO1 060558Z 07005KT 21/19 A3005 RMK A01 T02080193  RH  091%=      5-min Rain = 0
KGO1 060559Z 07005KT 21/19 A3005 RMK A01 T02080193  RH  091%=      5-min Rain = 0
KGO1 060600Z 07005KT 21/19 A3005 RMK A01 T02080192  RH  091%=      5-min Rain = 0
KGO1 060601Z 08004KT 21/19 A3005 RMK A01 T02080192  RH  091%=      5-min Rain = 0
KGO1 060602Z 08003KT 21/19 A3005 RMK A01 T02080192  RH  090%=      5-min Rain = 0
KGO1 060603Z 07004KT 21/19 A3005 RMK A01 T02080192  RH  090%=      5-min Rain = 0
KGO1 060604Z 07003KT 21/19 A3005 RMK A01 T02080192  RH  090%=      5-min Rain = 0
KGO1 060605Z 09003KT 21/19 A3005 RMK A01 T02080191  RH  090%=      5-min Rain = 0
KGO1 060606Z 09003KT 21/19 A3005 RMK A01 T02080191  RH  090%=      5-min Rain = 0
KGO1 060607Z 09003KT 21/19 A3005 RMK A01 T02090192  RH  090%=      5-min Rain = 0
KGO1 060608Z 10004KT 21/19 A3005 RMK A01 T02090191  RH  090%=      5-min Rain = 0
KGO1 060609Z 11003KT 21/19 A3005 RMK A01 T02090192  RH  090%=      5-min Rain = 0
KGO1 060610Z 11003KT 21/19 A3005 RMK A01 T02090192  RH  090%=      5-min Rain = 0
KGO1 060611Z 11003KT 21/19 A3005 RMK A01 T02080191  RH  090%=      5-min Rain = 0
KGO1 060612Z 11003KT 21/19 A3005 RMK A01 T02080192  RH  090%=      5-min Rain = 0
KGO1 060613Z 13003KT 21/19 A3005 RMK A01 T02080192  RH  090%=      5-min Rain = 0
KGO1 060614Z 14003KT 21/19 A3005 RMK A01 T02080192  RH  091%=      5-min Rain = 0
KGO1 060615Z 13003KT 21/19 A3005 RMK A01 T02080193  RH  091%=      5-min Rain = 0
KGO1 060616Z 13003KT 21/19 A3005 RMK A01 T02070192  RH  091%=      5-min Rain = 0
KGO1 060617Z 13003KT 21/19 A3005 RMK A01 T02070192  RH  091%=      5-min Rain = 0
KGO1 060618Z 13003KT 21/19 A3005 RMK A01 T02070193  RH  091%=      5-min Rain = 0
KGO1 060619Z 13003KT 21/19 A3005 RMK A01 T02070192  RH  091%=      5-min Rain = 0
KGO1 060620Z 12003KT 21/19 A3005 RMK A01 T02070192  RH  091%=      5-min Rain = 0
KGO1 060621Z 11003KT 21/19 A3005 RMK A01 T02060192  RH  092%=      5-min Rain = 0
KGO1 060622Z 11003KT 21/19 A3005 RMK A01 T02060192  RH  092%=      5-min Rain = 0
KGO1 060623Z 11002KT 21/19 A3005 RMK A01 T02060192  RH  092%=      5-min Rain = 0
KGO1 060624Z 11002KT 21/19 A3005 RMK A01 T02050192  RH  092%=      5-min Rain = 0
KGO1 060625Z 11003KT 21/19 A3005 RMK A01 T02050192  RH  092%=      5-min Rain = 0
KGO1 060626Z 12002KT 21/19 A3005 RMK A01 T02050192  RH  092%=      5-min Rain = 0
KGO1 060627Z 13002KT 21/19 A3005 RMK A01 T02050192  RH  092%=      5-min Rain = 0
KGO1 060628Z 14002KT 20/19 A3005 RMK A01 T02040191  RH  092%=      5-min Rain = 0
KGO1 060629Z 16002KT 21/19 A3005 RMK A01 T02050192  RH  092%=      5-min Rain = 0
KGO1 060630Z 17002KT 20/19 A3005 RMK A01 T02040192  RH  093%=      5-min Rain = 0
KGO1 060631Z 18003KT 21/19 A3005 RMK A01 T02050192  RH  092%=      5-min Rain = 0
KGO1 060632Z 18003KT 21/19 A3005 RMK A01 T02050192  RH  092%=      5-min Rain = 0
KGO1 060633Z 19003KT 21/19 A3005 RMK A01 T02050192  RH  092%=      5-min Rain = 0
KGO1 060634Z 18003KT 21/19 A3005 RMK A01 T02050192  RH  093%=      5-min Rain = 0
KGO1 060635Z 16003KT 21/19 A3005 RMK A01 T02050193  RH  093%=      5-min Rain = 0
KGO1 060636Z 16003KT 21/19 A3005 RMK A01 T02050193  RH  093%=      5-min Rain = 0
KGO1 060637Z 15002KT 20/19 A3005 RMK A01 T02040192  RH  093%=      5-min Rain = 0
KGO1 060638Z 13001KT 20/19 A3005 RMK A01 T02040192  RH  093%=      5-min Rain = 0
KGO1 060639Z 11002KT 20/19 A3005 RMK A01 T02040192  RH  093%=      5-min Rain = 0
KGO1 060640Z 11003KT 20/19 A3005 RMK A01 T02040192  RH  093%=      5-min Rain = 0
KGO1 060641Z 12003KT 20/19 A3005 RMK A01 T02040193  RH  093%=      5-min Rain = 0
KGO1 060642Z 11003KT 20/19 A3005 RMK A01 T02040192  RH  093%=      5-min Rain = 0
KGO1 060643Z 11003KT 20/19 A3005 RMK A01 T02040192  RH  093%=      5-min Rain = 0
KGO1 060644Z 11004KT 20/19 A3005 RMK A01 T02040191  RH  092%=      5-min Rain = 0
KGO1 060645Z 10004KT 20/19 A3005 RMK A01 T02040191  RH  092%=      5-min Rain = 0
KGO1 060646Z 09004KT 20/19 A3005 RMK A01 T02040191  RH  093%=      5-min Rain = 0
KGO1 060647Z 09005KT 20/19 A3005 RMK A01 T02040192  RH  093%=      5-min Rain = 0
KGO1 060648Z 08005KT 20/19 A3005 RMK A01 T02040192  RH  093%=      5-min Rain = 0
KGO1 060649Z 08004KT 20/19 A3005 RMK A01 T02040192  RH  093%=      5-min Rain = 0
KGO1 060650Z 07004KT 21/19 A3005 RMK A01 T02050192  RH  093%=      5-min Rain = 0
KGO1 060651Z 07004KT 21/19 A3005 RMK A01 T02050192  RH  092%=      5-min Rain = 0
KGO1 060652Z 08004KT 21/19 A3005 RMK A01 T02050192  RH  092%=      5-min Rain = 0
KGO1 060653Z 08004KT 21/19 A3005 RMK A01 T02050192  RH  093%=      5-min Rain = 0
KGO1 060654Z 08004KT 21/19 A3005 RMK A01 T02050192  RH  092%=      5-min Rain = 0
KGO1 060655Z 08004KT 21/19 A3005 RMK A01 T02050192  RH  092%=      5-min Rain = 0
KGO1 060656Z 09004KT 21/19 A3005 RMK A01 T02050192  RH  092%=      5-min Rain = 0
KGO1 060657Z 09004KT 20/19 A3005 RMK A01 T02040193  RH  093%=      5-min Rain = 0
KGO1 060658Z 09005KT 20/19 A3005 RMK A01 T02040193  RH  093%=      5-min Rain = 0
KGO1 060659Z 10004KT 20/19 A3005 RMK A01 T02040193  RH  093%=      5-min Rain = 0
KGO1 060700Z 10004KT 20/19 A3005 RMK A01 T02040193  RH  093%=      5-min Rain = 0
KGO1 060701Z 10004KT 20/19 A3005 RMK A01 T02030193  RH  094%=      5-min Rain = 0
KGO1 060702Z 10004KT 20/19 A3005 RMK A01 T02040193  RH  094%=      5-min Rain = 0
KGO1 060703Z 10003KT 20/19 A3005 RMK A01 T02040193  RH  094%=      5-min Rain = 0
KGO1 060704Z 10004KT 20/19 A3005 RMK A01 T02040193  RH  094%=      5-min Rain = 0
KGO1 060705Z 10004KT 20/19 A3005 RMK A01 T02040193  RH  094%=      5-min Rain = 0
KGO1 060706Z 10004KT 20/19 A3005 RMK A01 T02040193  RH  094%=      5-min Rain = 0
KGO1 060707Z 11004KT 20/19 A3005 RMK A01 T02040193  RH  093%=      5-min Rain = 0
KGO1 060708Z 11004KT 20/19 A3005 RMK A01 T02040193  RH  093%=      5-min Rain = 0
KGO1 060709Z 10004KT 20/19 A3005 RMK A01 T02030192  RH  093%=      5-min Rain = 0
KGO1 060710Z 10004KT 20/19 A3005 RMK A01 T02030192  RH  093%=      5-min Rain = 0
KGO1 060711Z 09003KT 20/19 A3005 RMK A01 T02030192  RH  093%=      5-min Rain = 0
KGO1 060712Z 08003KT 20/19 A3005 RMK A01 T02030192  RH  094%=      5-min Rain = 0
KGO1 060713Z 07002KT 20/19 A3005 RMK A01 T02030192  RH  094%=      5-min Rain = 0
KGO1 060714Z 07002KT 20/19 A3005 RMK A01 T02030192  RH  094%=      5-min Rain = 0
KGO1 060715Z 08002KT 20/19 A3005 RMK A01 T02030192  RH  094%=      5-min Rain = 0
KGO1 060716Z 09003KT 20/19 A3005 RMK A01 T02030192  RH  094%=      5-min Rain = 0
KGO1 060717Z 09003KT 20/19 A3005 RMK A01 T02030192  RH  094%=      5-min Rain = 0
KGO1 060718Z 10003KT 20/19 A3005 RMK A01 T02030192  RH  093%=      5-min Rain = 0
KGO1 060719Z 11003KT 20/19 A3005 RMK A01 T02030192  RH  094%=      5-min Rain = 0
KGO1 060720Z 11003KT 20/19 A3005 RMK A01 T02030192  RH  094%=      5-min Rain = 0
KGO1 060721Z 10003KT 20/19 A3005 RMK A01 T02030192  RH  094%=      5-min Rain = 0
KGO1 060722Z 09003KT 20/19 A3005 RMK A01 T02020192  RH  094%=      5-min Rain = 0
KGO1 060723Z 09003KT 20/19 A3005 RMK A01 T02020192  RH  094%=      5-min Rain = 0
KGO1 060724Z 09003KT 20/19 A3005 RMK A01 T02020192  RH  094%=      5-min Rain = 0
KGO1 060725Z 10003KT 20/19 A3005 RMK A01 T02020192  RH  094%=      5-min Rain = 0
KGO1 060726Z 11003KT 20/19 A3005 RMK A01 T02020192  RH  094%=      5-min Rain = 0
KGO1 060727Z 12003KT 20/19 A3005 RMK A01 T02020192  RH  094%=      5-min Rain = 0
KGO1 060728Z 13003KT 20/19 A3005 RMK A01 T02020192  RH  094%=      5-min Rain = 0
KGO1 060729Z 13003KT 20/19 A3005 RMK A01 T02020193  RH  094%=      5-min Rain = 0
KGO1 060730Z 13003KT 20/19 A3005 RMK A01 T02020193  RH  095%=      5-min Rain = 0
KGO1 060731Z 13003KT 20/19 A3005 RMK A01 T02020193  RH  095%=      5-min Rain = 0
KGO1 060732Z 13003KT 20/19 A3005 RMK A01 T02020193  RH  095%=      5-min Rain = 0
KGO1 060733Z 12003KT 20/19 A3005 RMK A01 T02010192  RH  095%=      5-min Rain = 0
KGO1 060734Z 13003KT 20/19 A3005 RMK A01 T02010192  RH  095%=      5-min Rain = 0
KGO1 060735Z 13004KT 20/19 A3005 RMK A01 T02010192  RH  095%=      5-min Rain = 0
KGO1 060736Z 13004KT 20/19 A3005 RMK A01 T02010192  RH  095%=      5-min Rain = 0
KGO1 060737Z 14004KT 20/19 A3005 RMK A01 T02010192  RH  095%=      5-min Rain = 0
KGO1 060738Z 13004KT 20/19 A3005 RMK A01 T02010193  RH  095%=      5-min Rain = 0
KGO1 060739Z 13004KT 20/19 A3005 RMK A01 T02010193  RH  095%=      5-min Rain = 0
KGO1 060740Z 12004KT 20/19 A3005 RMK A01 T02010193  RH  095%=      5-min Rain = 0
KGO1 060741Z 11004KT 20/19 A3005 RMK A01 T02010193  RH  095%=      5-min Rain = 0
KGO1 060742Z 11003KT 20/19 A3005 RMK A01 T02010193  RH  095%=      5-min Rain = 0
KGO1 060743Z 11003KT 20/19 A3005 RMK A01 T02010193  RH  095%=      5-min Rain = 0
KGO1 060744Z 11004KT 20/19 A3005 RMK A01 T02010193  RH  095%=      5-min Rain = 0
KGO1 060745Z 11003KT 20/19 A3005 RMK A01 T02010193  RH  095%=      5-min Rain = 0
KGO1 060746Z 12003KT 20/19 A3005 RMK A01 T02010193  RH  095%=      5-min Rain = 0
KGO1 060747Z 12004KT 20/19 A3005 RMK A01 T02010193  RH  095%=      5-min Rain = 0
KGO1 060748Z 13003KT 20/19 A3005 RMK A01 T02010193  RH  095%=      5-min Rain = 0
KGO1 060749Z 13004KT 20/19 A3005 RMK A01 T02010193  RH  095%=      5-min Rain = 0
KGO1 060750Z 14004KT 20/19 A3005 RMK A01 T02010193  RH  095%=      5-min Rain = 0
KGO1 060751Z 14004KT 20/19 A3004 RMK A01 T02010193  RH  095%=      5-min Rain = 0
KGO1 060752Z 14003KT 20/19 A3004 RMK A01 T02010194  RH  095%=      5-min Rain = 0
KGO1 060753Z 14003KT 20/19 A3004 RMK A01 T02010194  RH  095%=      5-min Rain = 0
KGO1 060754Z 14002KT 20/19 A3004 RMK A01 T02010193  RH  095%=      5-min Rain = 0
KGO1 060755Z 14002KT 20/19 A3004 RMK A01 T02010194  RH  095%=      5-min Rain = 0
KGO1 060756Z 15002KT 20/19 A3004 RMK A01 T02020194  RH  095%=      5-min Rain = 0
KGO1 060757Z 14002KT 20/19 A3004 RMK A01 T02020194  RH  095%=      5-min Rain = 0
KGO1 060758Z 14003KT 20/19 A3004 RMK A01 T02020194  RH  095%=      5-min Rain = 0
KGO1 060759Z 14003KT 20/19 A3004 RMK A01 T02020194  RH  095%=      5-min Rain = 0
KGO1 060800Z 14003KT 20/19 A3004 RMK A01 T02020194  RH  095%=      5-min Rain = 0
KGO1 060801Z 15002KT 20/19 A3004 RMK A01 T02020194  RH  095%=      5-min Rain = 0
KGO1 060802Z 15002KT 20/19 A3004 RMK A01 T02020194  RH  095%=      5-min Rain = 0
KGO1 060803Z 16002KT 20/19 A3004 RMK A01 T02020194  RH  095%=      5-min Rain = 0
KGO1 060804Z 16002KT 20/19 A3004 RMK A01 T02020194  RH  095%=      5-min Rain = 0
KGO1 060805Z 16002KT 20/19 A3004 RMK A01 T02030194  RH  095%=      5-min Rain = 0
KGO1 060806Z 17002KT 20/19 A3004 RMK A01 T02030194  RH  095%=      5-min Rain = 0
KGO1 060807Z 16002KT 20/19 A3004 RMK A01 T02030194  RH  095%=      5-min Rain = 0
KGO1 060808Z 17002KT 20/19 A3004 RMK A01 T02030194  RH  095%=      5-min Rain = 0
KGO1 060809Z 17001KT 20/19 A3004 RMK A01 T02030194  RH  095%=      5-min Rain = 0
KGO1 060810Z 18001KT 20/19 A3004 RMK A01 T02030194  RH  095%=      5-min Rain = 0
KGO1 060811Z 18001KT 20/19 A3004 RMK A01 T02030194  RH  095%=      5-min Rain = 0
KGO1 060812Z 19002KT 20/19 A3004 RMK A01 T02030194  RH  095%=      5-min Rain = 0
KGO1 060813Z 19002KT 20/20 A3004 RMK A01 T02030195  RH  095%=      5-min Rain = 0
KGO1 060814Z 18002KT 20/20 A3004 RMK A01 T02030195  RH  095%=      5-min Rain = 0
KGO1 060815Z 19002KT 20/20 A3004 RMK A01 T02030195  RH  095%=      5-min Rain = 0
KGO1 060816Z 19002KT 20/19 A3004 RMK A01 T02020194  RH  095%=      5-min Rain = 0
KGO1 060817Z 19002KT 20/19 A3004 RMK A01 T02030194  RH  095%=      5-min Rain = 0
KGO1 060818Z 20002KT 20/19 A3004 RMK A01 T02030194  RH  095%=      5-min Rain = 0
KGO1 060819Z 19002KT 20/19 A3004 RMK A01 T02030194  RH  095%=      5-min Rain = 0
KGO1 060820Z 19002KT 20/20 A3004 RMK A01 T02030195  RH  095%=      5-min Rain = 0
KGO1 060821Z 19003KT 20/20 A3004 RMK A01 T02030195  RH  095%=      5-min Rain = 0
KGO1 060822Z 19003KT 20/20 A3004 RMK A01 T02030195  RH  095%=      5-min Rain = 0
KGO1 060823Z 19003KT 20/20 A3004 RMK A01 T02040195  RH  095%=      5-min Rain = 0
KGO1 060824Z 19003KT 20/20 A3004 RMK A01 T02040195  RH  095%=      5-min Rain = 0
KGO1 060825Z 19003KT 20/19 A3004 RMK A01 T02030194  RH  095%=      5-min Rain = 0
KGO1 060826Z 19003KT 20/19 A3004 RMK A01 T02030194  RH  095%=      5-min Rain = 0
KGO1 060827Z 19003KT 20/19 A3004 RMK A01 T02030194  RH  095%=      5-min Rain = 0
KGO1 060828Z 19003KT 20/19 A3004 RMK A01 T02030194  RH  095%=      5-min Rain = 0
KGO1 060829Z 19003KT 20/19 A3004 RMK A01 T02030194  RH  095%=      5-min Rain = 0
KGO1 060830Z 19003KT 20/20 A3004 RMK A01 T02030195  RH  095%=      5-min Rain = 0
KGO1 060831Z 19003KT 20/19 A3005 RMK A01 T02020194  RH  095%=      5-min Rain = 0
KGO1 060832Z 19003KT 20/20 A3005 RMK A01 T02030195  RH  095%=      5-min Rain = 0
KGO1 060833Z 19002KT 20/20 A3005 RMK A01 T02030195  RH  095%=      5-min Rain = 0
KGO1 060834Z 19002KT 20/20 A3005 RMK A01 T02030195  RH  095%=      5-min Rain = 0
KGO1 060835Z 19002KT 20/20 A3005 RMK A01 T02030195  RH  095%=      5-min Rain = 0
KGO1 060836Z 19002KT 20/20 A3005 RMK A01 T02030195  RH  095%=      5-min Rain = 0
KGO1 060837Z 19002KT 20/20 A3005 RMK A01 T02030195  RH  095%=      5-min Rain = 0
KGO1 060838Z 19002KT 20/20 A3005 RMK A01 T02030195  RH  095%=      5-min Rain = 0
KGO1 060839Z 19001KT 20/20 A3004 RMK A01 T02030195  RH  095%=      5-min Rain = 0
KGO1 060840Z 19001KT 20/20 A3004 RMK A01 T02030195  RH  095%=      5-min Rain = 0
KGO1 060841Z 19001KT 20/20 A3004 RMK A01 T02030195  RH  095%=      5-min Rain = 0
KGO1 060842Z 19001KT 20/20 A3004 RMK A01 T02030195  RH  095%=      5-min Rain = 0
KGO1 060843Z 19002KT 20/20 A3004 RMK A01 T02030195  RH  095%=      5-min Rain = 0
KGO1 060844Z 20002KT 20/20 A3004 RMK A01 T02030196  RH  095%=      5-min Rain = 0
KGO1 060845Z 20002KT 20/20 A3004 RMK A01 T02030196  RH  095%=      5-min Rain = 0
KGO1 060846Z 21002KT 20/20 A3004 RMK A01 T02030196  RH  095%=      5-min Rain = 0
KGO1 060847Z 21002KT 20/20 A3004 RMK A01 T02030196  RH  095%=      5-min Rain = 0
KGO1 060848Z 22002KT 20/20 A3004 RMK A01 T02040196  RH  095%=      5-min Rain = 0
KGO1 060849Z 22002KT 20/20 A3004 RMK A01 T02040195  RH  095%=      5-min Rain = 0
KGO1 060850Z 22002KT 20/20 A3004 RMK A01 T02030195  RH  095%=      5-min Rain = 0
KGO1 060851Z 22002KT 20/20 A3004 RMK A01 T02040195  RH  095%=      5-min Rain = 0
KGO1 060852Z 22002KT 20/20 A3004 RMK A01 T02040196  RH  095%=      5-min Rain = 0
KGO1 060853Z 22002KT 20/20 A3004 RMK A01 T02030195  RH  095%=      5-min Rain = 0
KGO1 060854Z 23002KT 20/20 A3004 RMK A01 T02030195  RH  095%=      5-min Rain = 0
KGO1 060855Z 23002KT 20/20 A3004 RMK A01 T02030195  RH  095%=      5-min Rain = 0
KGO1 060856Z 22002KT 20/20 A3004 RMK A01 T02030195  RH  095%=      5-min Rain = 0
KGO1 060857Z 22003KT 20/20 A3004 RMK A01 T02030195  RH  095%=      5-min Rain = 0
KGO1 060858Z 22003KT 20/20 A3004 RMK A01 T02030195  RH  095%=      5-min Rain = 0
KGO1 060859Z 23003KT 20/20 A3004 RMK A01 T02030195  RH  095%=      5-min Rain = 0
KGO1 060900Z 23003KT 20/19 A3004 RMK A01 T02030194  RH  095%=      5-min Rain = 0
KGO1 060901Z 22003KT 20/19 A3004 RMK A01 T02030194  RH  095%=      5-min Rain = 0
KGO1 060902Z 23002KT 20/19 A3004 RMK A01 T02020194  RH  095%=      5-min Rain = 0
KGO1 060903Z 23002KT 20/19 A3004 RMK A01 T02020193  RH  095%=      5-min Rain = 0
KGO1 060904Z 22001KT 20/19 A3004 RMK A01 T02020194  RH  095%=      5-min Rain = 0
KGO1 060905Z 22001KT 20/19 A3004 RMK A01 T02010193  RH  095%=      5-min Rain = 0
KGO1 060906Z 22001KT 20/19 A3004 RMK A01 T02010193  RH  095%=      5-min Rain = 0
KGO1 060907Z 23001KT 20/19 A3004 RMK A01 T02010193  RH  095%=      5-min Rain = 0
KGO1 060908Z 22001KT 20/19 A3004 RMK A01 T02010193  RH  095%=      5-min Rain = 0
KGO1 060909Z 22001KT 20/19 A3004 RMK A01 T02000192  RH  095%=      5-min Rain = 0
KGO1 060910Z 22001KT 20/19 A3004 RMK A01 T02000192  RH  095%=      5-min Rain = 0
KGO1 060911Z 22001KT 20/19 A3004 RMK A01 T01990192  RH  096%=      5-min Rain = 0
KGO1 060912Z 23001KT 20/19 A3004 RMK A01 T01990193  RH  096%=      5-min Rain = 0
KGO1 060913Z 24001KT 20/19 A3004 RMK A01 T01990193  RH  096%=      5-min Rain = 0
KGO1 060914Z 25001KT 20/19 A3004 RMK A01 T01990193  RH  096%=      5-min Rain = 0
KGO1 060915Z 25001KT 20/19 A3004 RMK A01 T01990193  RH  096%=      5-min Rain = 0
KGO1 060916Z 26002KT 20/19 A3004 RMK A01 T01980193  RH  097%=      5-min Rain = 0
KGO1 060917Z 26002KT 20/19 A3004 RMK A01 T01980193  RH  097%=      5-min Rain = 0
KGO1 060918Z 26002KT 20/19 A3004 RMK A01 T01980192  RH  097%=      5-min Rain = 0
KGO1 060919Z 26002KT 20/19 A3004 RMK A01 T01970192  RH  097%=      5-min Rain = 0
KGO1 060920Z 27001KT 20/19 A3004 RMK A01 T01970192  RH  097%=      5-min Rain = 0
KGO1 060921Z 28001KT 20/19 A3004 RMK A01 T01970192  RH  097%=      5-min Rain = 0
KGO1 060922Z 28001KT 20/19 A3004 RMK A01 T01970192  RH  097%=      5-min Rain = 0
KGO1 060923Z 29002KT 20/19 A3004 RMK A01 T01970192  RH  097%=      5-min Rain = 0
KGO1 060924Z 28002KT 20/19 A3004 RMK A01 T01970192  RH  097%=      5-min Rain = 0
KGO1 060925Z 28002KT 20/19 A3004 RMK A01 T01970191  RH  097%=      5-min Rain = 0
KGO1 060926Z 28002KT 20/19 A3004 RMK A01 T01960191  RH  096%=      5-min Rain = 0
KGO1 060927Z 28002KT 20/19 A3004 RMK A01 T01960190  RH  096%=      5-min Rain = 0
KGO1 060928Z 29002KT 20/19 A3004 RMK A01 T01950189  RH  096%=      5-min Rain = 0
KGO1 060929Z 29003KT 20/19 A3004 RMK A01 T01960189  RH  096%=      5-min Rain = 0
KGO1 060930Z 30003KT 20/19 A3004 RMK A01 T01950189  RH  096%=      5-min Rain = 0
KGO1 060931Z 30003KT 20/19 A3004 RMK A01 T01950189  RH  096%=      5-min Rain = 0
KGO1 060932Z 31003KT 20/19 A3004 RMK A01 T01950188  RH  096%=      5-min Rain = 0
KGO1 060933Z 31004KT 20/19 A3004 RMK A01 T01950188  RH  096%=      5-min Rain = 0
KGO1 060934Z 33004KT 20/19 A3004 RMK A01 T01950187  RH  095%=      5-min Rain = 0
KGO1 060935Z 33004KT 19/19 A3005 RMK A01 T01940185  RH  095%=      5-min Rain = 0
KGO1 060936Z 33004KT 19/18 A3004 RMK A01 T01930184  RH  095%=      5-min Rain = 0
KGO1 060937Z 34004KT 19/18 A3005 RMK A01 T01920184  RH  095%=      5-min Rain = 0
KGO1 060938Z 33004KT 19/19 A3005 RMK A01 T01920185  RH  096%=      5-min Rain = 0
KGO1 060939Z 33003KT 19/19 A3005 RMK A01 T01920185  RH  096%=      5-min Rain = 0
KGO1 060940Z 34003KT 19/19 A3005 RMK A01 T01920186  RH  096%=      5-min Rain = 0
KGO1 060941Z 34002KT 19/19 A3005 RMK A01 T01920186  RH  096%=      5-min Rain = 0
KGO1 060942Z 34003KT 19/19 A3004 RMK A01 T01920186  RH  097%=      5-min Rain = 0
KGO1 060943Z 35003KT 19/19 A3004 RMK A01 T01920186  RH  096%=      5-min Rain = 0
KGO1 060944Z 35003KT 19/19 A3004 RMK A01 T01920186  RH  097%=      5-min Rain = 0
KGO1 060945Z 35003KT 19/19 A3004 RMK A01 T01920187  RH  097%=      5-min Rain = 0
KGO1 060946Z 35003KT 19/19 A3004 RMK A01 T01920187  RH  097%=      5-min Rain = 0
KGO1 060947Z 35003KT 19/19 A3004 RMK A01 T01920187  RH  097%=      5-min Rain = 0
KGO1 060948Z 35003KT 19/19 A3004 RMK A01 T01920186  RH  096%=      5-min Rain = 0
KGO1 060949Z 35003KT 19/19 A3004 RMK A01 T01910185  RH  096%=      5-min Rain = 0
KGO1 060950Z 00004KT 19/19 A3004 RMK A01 T01910186  RH  097%=      5-min Rain = 0
KGO1 060951Z 00004KT 19/19 A3004 RMK A01 T01910185  RH  097%=      5-min Rain = 0
KGO1 060952Z 01004KT 19/18 A3004 RMK A01 T01900184  RH  096%=      5-min Rain = 0
KGO1 060953Z 01004KT 19/18 A3004 RMK A01 T01900184  RH  096%=      5-min Rain = 0
KGO1 060954Z 02005KT 19/18 A3004 RMK A01 T01890183  RH  096%=      5-min Rain = 0
KGO1 060955Z 01005KT 19/18 A3004 RMK A01 T01890184  RH  097%=      5-min Rain = 0
KGO1 060956Z 01004KT 19/18 A3004 RMK A01 T01890184  RH  097%=      5-min Rain = 0
KGO1 060957Z 00004KT 19/18 A3004 RMK A01 T01890184  RH  097%=      5-min Rain = 0
KGO1 060958Z 00004KT 19/18 A3004 RMK A01 T01880184  RH  097%=      5-min Rain = 0
KGO1 060959Z 36004KT 19/18 A3004 RMK A01 T01880183  RH  097%=      5-min Rain = 0
KGO1 061000Z 35004KT 19/18 A3004 RMK A01 T01880183  RH  097%=      5-min Rain = 0
KGO1 061001Z 35004KT 19/18 A3004 RMK A01 T01870183  RH  097%=      5-min Rain = 0
KGO1 061002Z 35004KT 19/18 A3004 RMK A01 T01870183  RH  097%=      5-min Rain = 0
KGO1 061003Z 35003KT 19/18 A3004 RMK A01 T01870183  RH  097%=      5-min Rain = 0
KGO1 061004Z 35004KT 19/18 A3004 RMK A01 T01870183  RH  097%=      5-min Rain = 0
KGO1 061005Z 35004KT 19/18 A3004 RMK A01 T01870183  RH  097%=      5-min Rain = 0
KGO1 061006Z 35003KT 19/18 A3004 RMK A01 T01870182  RH  097%=      5-min Rain = 0
KGO1 061007Z 35003KT 19/18 A3004 RMK A01 T01860182  RH  097%=      5-min Rain = 0
KGO1 061008Z 35003KT 19/18 A3004 RMK A01 T01860182  RH  097%=      5-min Rain = 0
KGO1 061009Z 35003KT 19/18 A3004 RMK A01 T01860182  RH  097%=      5-min Rain = 0
KGO1 061010Z 35003KT 19/18 A3004 RMK A01 T01860183  RH  098%=      5-min Rain = 0
KGO1 061011Z 35002KT 19/18 A3004 RMK A01 T01870183  RH  098%=      5-min Rain = 0
KGO1 061012Z 35002KT 19/18 A3004 RMK A01 T01870183  RH  098%=      5-min Rain = 0
KGO1 061013Z 00002KT 19/18 A3004 RMK A01 T01870184  RH  098%=      5-min Rain = 0
KGO1 061014Z 01002KT 19/18 A3004 RMK A01 T01870184  RH  098%=      5-min Rain = 0
KGO1 061015Z 01003KT 19/19 A3004 RMK A01 T01880185  RH  098%=      5-min Rain = 0
KGO1 061016Z 01003KT 19/19 A3004 RMK A01 T01880185  RH  098%=      5-min Rain = 0
KGO1 061017Z 01003KT 19/19 A3004 RMK A01 T01880185  RH  098%=      5-min Rain = 0
KGO1 061018Z 01003KT 19/19 A3004 RMK A01 T01880185  RH  098%=      5-min Rain = 0
KGO1 061019Z 01004KT 19/19 A3004 RMK A01 T01880185  RH  098%=      5-min Rain = 0
KGO1 061020Z 01004KT 19/18 A3004 RMK A01 T01880184  RH  098%=      5-min Rain = 0
KGO1 061021Z 00004KT 19/18 A3004 RMK A01 T01870183  RH  097%=      5-min Rain = 0
KGO1 061022Z 00004KT 19/18 A3004 RMK A01 T01870182  RH  097%=      5-min Rain = 0
KGO1 061023Z 00004KT 19/18 A3004 RMK A01 T01860182  RH  097%=      5-min Rain = 0
KGO1 061024Z 00004KT 19/18 A3004 RMK A01 T01860182  RH  097%=      5-min Rain = 0
KGO1 061025Z 36004KT 19/18 A3004 RMK A01 T01860182  RH  098%=      5-min Rain = 0
KGO1 061026Z 00004KT 19/18 A3004 RMK A01 T01860182  RH  098%=      5-min Rain = 0
KGO1 061027Z 00004KT 19/18 A3004 RMK A01 T01860182  RH  098%=      5-min Rain = 0
KGO1 061028Z 00004KT 19/18 A3004 RMK A01 T01860182  RH  098%=      5-min Rain = 0
KGO1 061029Z 00004KT 19/18 A3004 RMK A01 T01860182  RH  098%=      5-min Rain = 0
KGO1 061030Z 00005KT 19/18 A3004 RMK A01 T01860182  RH  098%=      5-min Rain = 0
KGO1 061031Z 00005KT 19/18 A3004 RMK A01 T01850181  RH  098%=      5-min Rain = 0
KGO1 061032Z 00004KT 19/18 A3004 RMK A01 T01850181  RH  098%=      5-min Rain = 0
KGO1 061033Z 00004KT 19/18 A3004 RMK A01 T01850182  RH  098%=      5-min Rain = 0
KGO1 061034Z 00004KT 19/18 A3004 RMK A01 T01850182  RH  098%=      5-min Rain = 0
KGO1 061035Z 00004KT 19/18 A3004 RMK A01 T01860182  RH  098%=      5-min Rain = 0
KGO1 061036Z 00004KT 19/18 A3004 RMK A01 T01860182  RH  098%=      5-min Rain = 0
KGO1 061037Z 01004KT 19/18 A3004 RMK A01 T01860182  RH  098%=      5-min Rain = 0
KGO1 061038Z 01004KT 19/18 A3004 RMK A01 T01860182  RH  098%=      5-min Rain = 0
KGO1 061039Z 01004KT 19/18 A3004 RMK A01 T01860182  RH  098%=      5-min Rain = 0
KGO1 061040Z 01003KT 19/18 A3004 RMK A01 T01860182  RH  098%=      5-min Rain = 0
KGO1 061041Z 01003KT 19/18 A3004 RMK A01 T01860182  RH  098%=      5-min Rain = 0
KGO1 061042Z 00003KT 19/18 A3004 RMK A01 T01860182  RH  098%=      5-min Rain = 0
KGO1 061043Z 00003KT 19/18 A3005 RMK A01 T01860182  RH  098%=      5-min Rain = 0
KGO1 061044Z 00003KT 19/18 A3005 RMK A01 T01860183  RH  098%=      5-min Rain = 0
KGO1 061045Z 00004KT 19/18 A3005 RMK A01 T01870184  RH  098%=      5-min Rain = 0
KGO1 061046Z 00004KT 19/18 A3005 RMK A01 T01870184  RH  098%=      5-min Rain = 0
KGO1 061047Z 00004KT 19/18 A3004 RMK A01 T01880184  RH  098%=      5-min Rain = 0
KGO1 061048Z 01004KT 19/18 A3004 RMK A01 T01870184  RH  098%=      5-min Rain = 0
KGO1 061049Z 01004KT 19/18 A3004 RMK A01 T01870183  RH  098%=      5-min Rain = 0
KGO1 061050Z 01003KT 19/18 A3004 RMK A01 T01860183  RH  098%=      5-min Rain = 0
KGO1 061051Z 02004KT 19/18 A3004 RMK A01 T01860183  RH  098%=      5-min Rain = 0
KGO1 061052Z 02004KT 19/18 A3004 RMK A01 T01860183  RH  098%=      5-min Rain = 0
KGO1 061053Z 02004KT 19/18 A3004 RMK A01 T01870183  RH  098%=      5-min Rain = 0
KGO1 061054Z 02004KT 19/18 A3004 RMK A01 T01860183  RH  098%=      5-min Rain = 0
KGO1 061055Z 01004KT 19/18 A3004 RMK A01 T01870183  RH  098%=      5-min Rain = 0
KGO1 061056Z 01004KT 19/18 A3004 RMK A01 T01870183  RH  098%=      5-min Rain = 0
KGO1 061057Z 01005KT 19/18 A3004 RMK A01 T01870183  RH  098%=      5-min Rain = 0
KGO1 061058Z 01005KT 19/18 A3004 RMK A01 T01860183  RH  098%=      5-min Rain = 0
KGO1 061059Z 01004KT 19/18 A3004 RMK A01 T01860182  RH  098%=      5-min Rain = 0
KGO1 061100Z 01005KT 19/18 A3005 RMK A01 T01860182  RH  098%=      5-min Rain = 0
KGO1 061101Z 01005KT 19/18 A3005 RMK A01 T01860182  RH  098%=      5-min Rain = 0
KGO1 061102Z 02005KT 19/18 A3005 RMK A01 T01860182  RH  098%=      5-min Rain = 0
KGO1 061103Z 02004KT 19/18 A3005 RMK A01 T01860182  RH  098%=      5-min Rain = 0
KGO1 061104Z 02004KT 19/18 A3005 RMK A01 T01850182  RH  098%=      5-min Rain = 0
KGO1 061105Z 02004KT 19/18 A3005 RMK A01 T01860183  RH  098%=      5-min Rain = 0
KGO1 061106Z 02004KT 19/18 A3004 RMK A01 T01860183  RH  098%=      5-min Rain = 0
KGO1 061107Z 02004KT 19/18 A3005 RMK A01 T01860183  RH  098%=      5-min Rain = 0
KGO1 061108Z 02004KT 19/18 A3004 RMK A01 T01870184  RH  098%=      5-min Rain = 0
KGO1 061109Z 02004KT 19/18 A3004 RMK A01 T01870184  RH  098%=      5-min Rain = 0
KGO1 061110Z 02004KT 19/19 A3004 RMK A01 T01880185  RH  098%=      5-min Rain = 0
KGO1 061111Z 02004KT 19/18 A3004 RMK A01 T01870184  RH  098%=      5-min Rain = 0
KGO1 061112Z 02004KT 19/18 A3004 RMK A01 T01870184  RH  098%=      5-min Rain = 0
KGO1 061113Z 02004KT 19/18 A3004 RMK A01 T01870184  RH  098%=      5-min Rain = 0
KGO1 061114Z 02004KT 19/18 A3004 RMK A01 T01870183  RH  098%=      5-min Rain = 0
KGO1 061115Z 02004KT 19/18 A3005 RMK A01 T01870183  RH  098%=      5-min Rain = 0
KGO1 061116Z 02004KT 19/18 A3004 RMK A01 T01860183  RH  098%=      5-min Rain = 0
KGO1 061117Z 02004KT 19/18 A3004 RMK A01 T01860183  RH  098%=      5-min Rain = 0
KGO1 061118Z 01004KT 19/18 A3004 RMK A01 T01860183  RH  098%=      5-min Rain = 0
KGO1 061119Z 01004KT 19/18 A3004 RMK A01 T01860183  RH  098%=      5-min Rain = 0
KGO1 061120Z 01004KT 19/18 A3004 RMK A01 T01860183  RH  098%=      5-min Rain = 0
KGO1 061121Z 01004KT 19/18 A3004 RMK A01 T01860182  RH  098%=      5-min Rain = 0
KGO1 061122Z 01004KT 19/18 A3004 RMK A01 T01850182  RH  098%=      5-min Rain = 0
KGO1 061123Z 01004KT 19/18 A3004 RMK A01 T01850182  RH  098%=      5-min Rain = 0
KGO1 061124Z 01004KT 19/18 A3005 RMK A01 T01850182  RH  098%=      5-min Rain = 0
KGO1 061125Z 01004KT 19/18 A3005 RMK A01 T01850182  RH  098%=      5-min Rain = 0
KGO1 061126Z 01004KT 19/18 A3005 RMK A01 T01850181  RH  098%=      5-min Rain = 0
KGO1 061127Z 01003KT 18/18 A3005 RMK A01 T01840181  RH  098%=      5-min Rain = 0
KGO1 061128Z 00003KT 18/18 A3005 RMK A01 T01840181  RH  098%=      5-min Rain = 0
KGO1 061129Z 00003KT 18/18 A3005 RMK A01 T01840181  RH  098%=      5-min Rain = 0
KGO1 061130Z 36003KT 18/18 A3005 RMK A01 T01840181  RH  098%=      5-min Rain = 0
KGO1 061131Z 35003KT 18/18 A3005 RMK A01 T01840180  RH  098%=      5-min Rain = 0
KGO1 061132Z 34003KT 18/18 A3005 RMK A01 T01830180  RH  098%=      5-min Rain = 0
KGO1 061133Z 34003KT 18/18 A3005 RMK A01 T01830181  RH  098%=      5-min Rain = 0
KGO1 061134Z 34003KT 18/18 A3005 RMK A01 T01830181  RH  098%=      5-min Rain = 0
KGO1 061135Z 34003KT 18/18 A3005 RMK A01 T01830181  RH  098%=      5-min Rain = 0
KGO1 061136Z 35003KT 18/18 A3005 RMK A01 T01830181  RH  098%=      5-min Rain = 0
KGO1 061137Z 35003KT 18/18 A3005 RMK A01 T01830180  RH  098%=      5-min Rain = 0
KGO1 061138Z 35004KT 18/18 A3005 RMK A01 T01820180  RH  098%=      5-min Rain = 0
KGO1 061139Z 36003KT 18/18 A3005 RMK A01 T01820180  RH  098%=      5-min Rain = 0
KGO1 061140Z 36003KT 18/18 A3005 RMK A01 T01830180  RH  098%=      5-min Rain = 0
KGO1 061141Z 00003KT 18/18 A3005 RMK A01 T01830180  RH  098%=      5-min Rain = 0
KGO1 061142Z 01003KT 18/18 A3005 RMK A01 T01830180  RH  098%=      5-min Rain = 0
KGO1 061143Z 00003KT 18/18 A3005 RMK A01 T01820180  RH  098%=      5-min Rain = 0
KGO1 061144Z 01003KT 18/18 A3006 RMK A01 T01820180  RH  098%=      5-min Rain = 0
KGO1 061145Z 01003KT 18/18 A3006 RMK A01 T01820180  RH  098%=      5-min Rain = 0
KGO1 061146Z 01003KT 18/18 A3006 RMK A01 T01820180  RH  098%=      5-min Rain = 0
KGO1 061147Z 00003KT 18/18 A3006 RMK A01 T01820180  RH  098%=      5-min Rain = 0
KGO1 061148Z 01003KT 18/18 A3006 RMK A01 T01820180  RH  098%=      5-min Rain = 0
KGO1 061149Z 01003KT 18/18 A3006 RMK A01 T01820180  RH  098%=      5-min Rain = 0
KGO1 061150Z 01003KT 18/18 A3006 RMK A01 T01820179  RH  098%=      5-min Rain = 0
KGO1 061151Z 00003KT 18/18 A3006 RMK A01 T01820179  RH  098%=      5-min Rain = 0
KGO1 061152Z 36003KT 18/18 A3006 RMK A01 T01820179  RH  098%=      5-min Rain = 0
KGO1 061153Z 00003KT 18/18 A3006 RMK A01 T01820179  RH  098%=      5-min Rain = 0
KGO1 061154Z 36003KT 18/18 A3006 RMK A01 T01820179  RH  098%=      5-min Rain = 0
KGO1 061155Z 00003KT 18/18 A3006 RMK A01 T01820180  RH  098%=      5-min Rain = 0
KGO1 061156Z 36003KT 18/18 A3006 RMK A01 T01830180  RH  098%=      5-min Rain = 0
KGO1 061157Z 35003KT 18/18 A3006 RMK A01 T01830180  RH  098%=      5-min Rain = 0
KGO1 061158Z 35003KT 18/18 A3007 RMK A01 T01830180  RH  098%=      5-min Rain = 0
KGO1 061159Z 36003KT 18/18 A3007 RMK A01 T01830180  RH  098%=      5-min Rain = 0
KGO1 061200Z 36003KT 18/18 A3007 RMK A01 T01830180  RH  098%=      5-min Rain = 0
KGO1 061201Z 36003KT 18/18 A3007 RMK A01 T01830179  RH  098%=      5-min Rain = 0
KGO1 061202Z 36003KT 18/18 A3007 RMK A01 T01830180  RH  098%=      5-min Rain = 0
KGO1 061203Z 36003KT 18/18 A3006 RMK A01 T01830180  RH  098%=      5-min Rain = 0
KGO1 061204Z 00003KT 18/18 A3006 RMK A01 T01830180  RH  098%=      5-min Rain = 0
KGO1 061205Z 01003KT 18/18 A3006 RMK A01 T01840181  RH  098%=      5-min Rain = 0
KGO1 061206Z 01003KT 19/18 A3006 RMK A01 T01850181  RH  098%=      5-min Rain = 0
KGO1 061207Z 02003KT 19/18 A3006 RMK A01 T01850182  RH  098%=      5-min Rain = 0
KGO1 061208Z 02004KT 19/18 A3006 RMK A01 T01850182  RH  098%=      5-min Rain = 0
KGO1 061209Z 02003KT 19/18 A3006 RMK A01 T01860183  RH  098%=      5-min Rain = 0
KGO1 061210Z 02003KT 19/18 A3006 RMK A01 T01870183  RH  098%=      5-min Rain = 0
KGO1 061211Z 02003KT 19/18 A3006 RMK A01 T01880184  RH  098%=      5-min Rain = 0
KGO1 061212Z 02003KT 19/18 A3006 RMK A01 T01880184  RH  098%=      5-min Rain = 0
KGO1 061213Z 02003KT 19/18 A3006 RMK A01 T01880184  RH  097%=      5-min Rain = 0
KGO1 061214Z 02003KT 19/19 A3006 RMK A01 T01890185  RH  097%=      5-min Rain = 0
KGO1 061215Z 02003KT 19/18 A3006 RMK A01 T01890184  RH  097%=      5-min Rain = 0
KGO1 061216Z 02004KT 19/19 A3006 RMK A01 T01890185  RH  097%=      5-min Rain = 0
KGO1 061217Z 01003KT 19/19 A3007 RMK A01 T01900185  RH  097%=      5-min Rain = 0
KGO1 061218Z 02003KT 19/19 A3007 RMK A01 T01900185  RH  097%=      5-min Rain = 0
KGO1 061219Z 01003KT 19/19 A3007 RMK A01 T01910186  RH  097%=      5-min Rain = 0
KGO1 061220Z 02003KT 19/19 A3006 RMK A01 T01920186  RH  097%=      5-min Rain = 0
KGO1 061221Z 01003KT 19/19 A3006 RMK A01 T01920187  RH  097%=      5-min Rain = 0
KGO1 061222Z 01003KT 19/19 A3006 RMK A01 T01930188  RH  097%=      5-min Rain = 0
KGO1 061223Z 01003KT 19/19 A3006 RMK A01 T01930188  RH  097%=      5-min Rain = 0
KGO1 061224Z 01002KT 19/19 A3006 RMK A01 T01940188  RH  096%=      5-min Rain = 0
KGO1 061225Z 01002KT 20/19 A3006 RMK A01 T01950189  RH  096%=      5-min Rain = 0
KGO1 061226Z 01003KT 20/19 A3006 RMK A01 T01950189  RH  096%=      5-min Rain = 0
KGO1 061227Z 02002KT 20/19 A3006 RMK A01 T01960189  RH  096%=      5-min Rain = 0
KGO1 061228Z 01002KT 20/19 A3006 RMK A01 T01960189  RH  096%=      5-min Rain = 0
KGO1 061229Z 01002KT 20/19 A3006 RMK A01 T01970190  RH  096%=      5-min Rain = 0
KGO1 061230Z 02002KT 20/19 A3006 RMK A01 T01970190  RH  095%=      5-min Rain = 0
KGO1 061231Z 02003KT 20/19 A3006 RMK A01 T01980190  RH  095%=      5-min Rain = 0
KGO1 061232Z 02003KT 20/19 A3006 RMK A01 T01990191  RH  095%=      5-min Rain = 0
KGO1 061233Z 03002KT 20/19 A3006 RMK A01 T02000191  RH  095%=      5-min Rain = 0
KGO1 061234Z 03002KT 20/19 A3006 RMK A01 T02010191  RH  094%=      5-min Rain = 0
KGO1 061235Z 04002KT 20/19 A3006 RMK A01 T02010191  RH  094%=      5-min Rain = 0
KGO1 061236Z 04002KT 20/19 A3006 RMK A01 T02010191  RH  094%=      5-min Rain = 0
KGO1 061237Z 04002KT 20/19 A3006 RMK A01 T02020191  RH  094%=      5-min Rain = 0
KGO1 061238Z 04003KT 20/19 A3007 RMK A01 T02030193  RH  094%=      5-min Rain = 0
KGO1 061239Z 04003KT 20/19 A3007 RMK A01 T02040192  RH  093%=      5-min Rain = 0
KGO1 061240Z 04003KT 20/19 A3007 RMK A01 T02040192  RH  093%=      5-min Rain = 0
KGO1 061241Z 04003KT 20/19 A3007 RMK A01 T02040193  RH  093%=      5-min Rain = 0
KGO1 061242Z 04003KT 21/19 A3007 RMK A01 T02050192  RH  093%=      5-min Rain = 0
KGO1 061243Z 04004KT 21/19 A3007 RMK A01 T02050192  RH  092%=      5-min Rain = 0
KGO1 061244Z 03003KT 21/19 A3007 RMK A01 T02050193  RH  093%=      5-min Rain = 0
KGO1 061245Z 04003KT 21/19 A3007 RMK A01 T02050193  RH  093%=      5-min Rain = 0
KGO1 061246Z 04003KT 21/19 A3007 RMK A01 T02060193  RH  093%=      5-min Rain = 0
KGO1 061247Z 03003KT 21/20 A3007 RMK A01 T02060195  RH  093%=      5-min Rain = 0
KGO1 061248Z 03003KT 21/19 A3007 RMK A01 T02070194  RH  093%=      5-min Rain = 0
KGO1 061249Z 02003KT 21/19 A3007 RMK A01 T02070194  RH  092%=      5-min Rain = 0
KGO1 061250Z 03003KT 21/19 A3007 RMK A01 T02070194  RH  092%=      5-min Rain = 0
KGO1 061251Z 03003KT 21/20 A3007 RMK A01 T02070195  RH  093%=      5-min Rain = 0
KGO1 061252Z 03003KT 21/20 A3007 RMK A01 T02070195  RH  092%=      5-min Rain = 0
KGO1 061253Z 03002KT 21/20 A3007 RMK A01 T02080195  RH  093%=      5-min Rain = 0
KGO1 061254Z 02002KT 21/20 A3007 RMK A01 T02080198  RH  094%=      5-min Rain = 0
KGO1 061255Z 02003KT 21/20 A3007 RMK A01 T02090196  RH  092%=      5-min Rain = 0
KGO1 061256Z 02003KT 21/20 A3007 RMK A01 T02090195  RH  092%=      5-min Rain = 0
KGO1 061257Z 02003KT 21/20 A3007 RMK A01 T02100196  RH  092%=      5-min Rain = 0
KGO1 061258Z 02003KT 21/20 A3007 RMK A01 T02100196  RH  092%=      5-min Rain = 0
KGO1 061259Z 01003KT 21/20 A3007 RMK A01 T02110199  RH  093%=      5-min Rain = 0
KGO1 061300Z 01003KT 21/20 A3007 RMK A01 T02120196  RH  091%=      5-min Rain = 0
KGO1 061301Z 01003KT 21/20 A3007 RMK A01 T02110195  RH  090%=      5-min Rain = 0
KGO1 061302Z 02004KT 21/20 A3007 RMK A01 T02120196  RH  091%=      5-min Rain = 0
KGO1 061303Z 02003KT 21/20 A3007 RMK A01 T02110197  RH  091%=      5-min Rain = 0
KGO1 061304Z 01003KT 21/20 A3007 RMK A01 T02120198  RH  092%=      5-min Rain = 0
KGO1 061305Z 02004KT 21/20 A3007 RMK A01 T02120197  RH  091%=      5-min Rain = 0
KGO1 061306Z 01004KT 21/20 A3008 RMK A01 T02120197  RH  091%=      5-min Rain = 0
KGO1 061307Z 01003KT 21/20 A3008 RMK A01 T02120196  RH  090%=      5-min Rain = 0
KGO1 061308Z 01003KT 21/20 A3008 RMK A01 T02130198  RH  091%=      5-min Rain = 0
KGO1 061309Z 00004KT 21/20 A3008 RMK A01 T02120195  RH  090%=      5-min Rain = 0
KGO1 061310Z 35004KT 21/20 A3008 RMK A01 T02130196  RH  090%=      5-min Rain = 0
KGO1 061311Z 35004KT 21/20 A3008 RMK A01 T02130197  RH  091%=      5-min Rain = 0
KGO1 061312Z 35003KT 21/20 A3008 RMK A01 T02130197  RH  091%=      5-min Rain = 0
KGO1 061313Z 35004KT 21/20 A3008 RMK A01 T02130197  RH  091%=      5-min Rain = 0
KGO1 061314Z 36004KT 21/20 A3008 RMK A01 T02130195  RH  090%=      5-min Rain = 0
KGO1 061315Z 35004KT 21/20 A3008 RMK A01 T02140198  RH  091%=      5-min Rain = 0
KGO1 061316Z 36004KT 21/20 A3008 RMK A01 T02140198  RH  091%=      5-min Rain = 0
KGO1 061317Z 01003KT 22/20 A3008 RMK A01 T02150200  RH  091%=      5-min Rain = 0
KGO1 061318Z 00005KT 22/20 A3008 RMK A01 T02160198  RH  090%=      5-min Rain = 0
KGO1 061319Z 01005KT 22/20 A3008 RMK A01 T02160197  RH  089%=      5-min Rain = 0
KGO1 061320Z 02004KT 22/20 A3008 RMK A01 T02160197  RH  088%=      5-min Rain = 0
KGO1 061321Z 01004KT 22/20 A3008 RMK A01 T02160198  RH  089%=      5-min Rain = 0
KGO1 061322Z 00004KT 22/20 A3009 RMK A01 T02160199  RH  090%=      5-min Rain = 0
KGO1 061323Z 01005KT 22/20 A3009 RMK A01 T02170200  RH  090%=      5-min Rain = 0
KGO1 061324Z 02005KT 22/20 A3009 RMK A01 T02180198  RH  089%=      5-min Rain = 0
KGO1 061325Z 01005KT 22/20 A3009 RMK A01 T02180198  RH  088%=      5-min Rain = 0
KGO1 061326Z 00005KT 22/20 A3009 RMK A01 T02190199  RH  089%=      5-min Rain = 0
KGO1 061327Z 00005KT 22/20 A3009 RMK A01 T02180198  RH  088%=      5-min Rain = 0
KGO1 061328Z 01005KT 22/20 A3009 RMK A01 T02180196  RH  087%=      5-min Rain = 0
KGO1 061329Z 01004KT 22/20 A3009 RMK A01 T02190197  RH  088%=      5-min Rain = 0
KGO1 061330Z 02003KT 22/20 A3009 RMK A01 T02190196  RH  087%=      5-min Rain = 0
KGO1 061331Z 02003KT 22/20 A3009 RMK A01 T02200196  RH  086%=      5-min Rain = 0
KGO1 061332Z 01004KT 22/19 A3009 RMK A01 T02200194  RH  085%=      5-min Rain = 0
KGO1 061333Z 00004KT 22/19 A3009 RMK A01 T02210193  RH  084%=      5-min Rain = 0
KGO1 061334Z 01003KT 22/19 A3009 RMK A01 T02210192  RH  084%=      5-min Rain = 0
KGO1 061335Z 35003KT 22/19 A3009 RMK A01 T02220193  RH  083%=      5-min Rain = 0
KGO1 061336Z 00004KT 22/19 A3009 RMK A01 T02230193  RH  083%=      5-min Rain = 0
KGO1 061337Z 35004KT 22/20 A3009 RMK A01 T02240197  RH  085%=      5-min Rain = 0
KGO1 061338Z 34003KT 23/19 A3009 RMK A01 T02250192  RH  082%=      5-min Rain = 0
KGO1 061339Z 35003KT 23/19 A3009 RMK A01 T02250193  RH  082%=      5-min Rain = 0
KGO1 061340Z 00003KT 23/20 A3009 RMK A01 T02260195  RH  083%=      5-min Rain = 0
KGO1 061341Z 01003KT 23/19 A3009 RMK A01 T02270193  RH  081%=      5-min Rain = 0
KGO1 061342Z 35003KT 23/19 A3009 RMK A01 T02280193  RH  080%=      5-min Rain = 0
KGO1 061343Z 36002KT 23/20 A3009 RMK A01 T02290196  RH  082%=      5-min Rain = 0
KGO1 061344Z 02003KT 23/19 A3009 RMK A01 T02300192  RH  079%=      5-min Rain = 0
KGO1 061345Z 04003KT 23/19 A3009 RMK A01 T02300191  RH  078%=      5-min Rain = 0
KGO1 061346Z 05001KT 23/19 A3009 RMK A01 T02300191  RH  079%=      5-min Rain = 0
KGO1 061347Z 02002KT 23/19 A3009 RMK A01 T02310193  RH  079%=      5-min Rain = 0
KGO1 061348Z 04003KT 23/19 A3009 RMK A01 T02320189  RH  077%=      5-min Rain = 0
KGO1 061349Z 03002KT 23/19 A3009 RMK A01 T02320187  RH  076%=      5-min Rain = 0
KGO1 061350Z 01002KT 23/19 A3009 RMK A01 T02330187  RH  075%=      5-min Rain = 0
KGO1 061351Z 01002KT 23/19 A3009 RMK A01 T02330190  RH  077%=      5-min Rain = 0
KGO1 061352Z 35001KT 23/19 A3009 RMK A01 T02330189  RH  076%=      5-min Rain = 0
KGO1 061353Z 34000KT 23/19 A3009 RMK A01 T02330188  RH  076%=      5-min Rain = 0
KGO1 061354Z 00000KT 23/19 A3009 RMK A01 T02330187  RH  075%=      5-min Rain = 0
KGO1 061355Z 06002KT 24/19 A3009 RMK A01 T02350191  RH  076%=      5-min Rain = 0
KGO1 061356Z 08002KT 24/19 A3009 RMK A01 T02370185  RH  073%=      5-min Rain = 0
KGO1 061357Z 08002KT 24/19 A3009 RMK A01 T02380186  RH  073%=      5-min Rain = 0
KGO1 061358Z 08001KT 24/19 A3009 RMK A01 T02380188  RH  073%=      5-min Rain = 0
KGO1 061359Z 03001KT 24/19 A3009 RMK A01 T02390187  RH  073%=      5-min Rain = 0
KGO1 061400Z 09002KT 24/19 A3009 RMK A01 T02400185  RH  071%=      5-min Rain = 0
KGO1 061401Z 12001KT 24/18 A3009 RMK A01 T02400183  RH  071%=      5-min Rain = 0
KGO1 061402Z 13000KT 24/18 A3009 RMK A01 T02390182  RH  070%=      5-min Rain = 0
KGO1 061403Z 06000KT 24/18 A3009 RMK A01 T02390184  RH  071%=      5-min Rain = 0
KGO1 061404Z 27000KT 24/18 A3009 RMK A01 T02380182  RH  071%=      5-min Rain = 0
KGO1 061405Z 25000KT 24/18 A3009 RMK A01 T02400183  RH  070%=      5-min Rain = 0
KGO1 061406Z 17001KT 24/19 A3009 RMK A01 T02410186  RH  071%=      5-min Rain = 0
KGO1 061407Z 14001KT 24/19 A3009 RMK A01 T02420185  RH  070%=      5-min Rain = 0
KGO1 061408Z 18001KT 24/19 A3009 RMK A01 T02410185  RH  071%=      5-min Rain = 0
KGO1 061409Z 20001KT 24/19 A3009 RMK A01 T02410186  RH  071%=      5-min Rain = 0
KGO1 061410Z 25002KT 24/19 A3009 RMK A01 T02420186  RH  071%=      5-min Rain = 0
KGO1 061411Z 25002KT 24/19 A3009 RMK A01 T02430185  RH  070%=      5-min Rain = 0
KGO1 061412Z 27002KT 24/18 A3009 RMK A01 T02420184  RH  070%=      5-min Rain = 0
KGO1 061413Z 27001KT 24/19 A3009 RMK A01 T02410186  RH  071%=      5-min Rain = 0
KGO1 061414Z 24002KT 24/19 A3009 RMK A01 T02410186  RH  071%=      5-min Rain = 0
KGO1 061415Z 25001KT 24/19 A3009 RMK A01 T02410185  RH  071%=      5-min Rain = 0
KGO1 061416Z 28002KT 24/19 A3009 RMK A01 T02400185  RH  071%=      5-min Rain = 0
KGO1 061417Z 26003KT 24/19 A3009 RMK A01 T02400187  RH  072%=      5-min Rain = 0
KGO1 061418Z 24004KT 24/19 A3009 RMK A01 T02400186  RH  071%=      5-min Rain = 0
KGO1 061419Z 25002KT 24/19 A3009 RMK A01 T02410186  RH  071%=      5-min Rain = 0
KGO1 061420Z 26004KT 24/19 A3009 RMK A01 T02410185  RH  071%=      5-min Rain = 0
KGO1 061421Z 26003KT 24/19 A3009 RMK A01 T02430186  RH  071%=      5-min Rain = 0
KGO1 061422Z 27003KT 24/19 A3009 RMK A01 T02440186  RH  070%=      5-min Rain = 0
KGO1 061423Z 25002KT 24/18 A3009 RMK A01 T02440184  RH  069%=      5-min Rain = 0
KGO1 061424Z 22002KT 24/19 A3009 RMK A01 T02440186  RH  070%=      5-min Rain = 0
KGO1 061425Z 22003KT 24/18 A3009 RMK A01 T02430184  RH  070%=      5-min Rain = 0
KGO1 061426Z 20003KT 24/19 A3009 RMK A01 T02430186  RH  070%=      5-min Rain = 0
KGO1 061427Z 19003KT 24/18 A3009 RMK A01 T02440184  RH  070%=      5-min Rain = 0
KGO1 061428Z 20002KT 24/19 A3009 RMK A01 T02440186  RH  070%=      5-min Rain = 0
KGO1 061429Z 22002KT 24/18 A3009 RMK A01 T02440184  RH  069%=      5-min Rain = 0
KGO1 061430Z 26002KT 24/18 A3009 RMK A01 T02430184  RH  070%=      5-min Rain = 0
KGO1 061431Z 00000KT 24/19 A3009 RMK A01 T02420185  RH  070%=      5-min Rain = 0
KGO1 061432Z 13001KT 24/19 A3009 RMK A01 T02430186  RH  070%=      5-min Rain = 0
KGO1 061433Z 15002KT 24/18 A3009 RMK A01 T02440184  RH  069%=      5-min Rain = 0
KGO1 061434Z 13002KT 25/18 A3009 RMK A01 T02450183  RH  069%=      5-min Rain = 0
KGO1 061435Z 14001KT 24/18 A3009 RMK A01 T02440184  RH  069%=      5-min Rain = 0
KGO1 061436Z 13001KT 24/19 A3009 RMK A01 T02440185  RH  070%=      5-min Rain = 0
KGO1 061437Z 15001KT 25/19 A3009 RMK A01 T02460185  RH  069%=      5-min Rain = 0
KGO1 061438Z 17000KT 25/18 A3009 RMK A01 T02470184  RH  068%=      5-min Rain = 0
KGO1 061439Z 08000KT 25/18 A3009 RMK A01 T02480184  RH  067%=      5-min Rain = 0
KGO1 061440Z 20001KT 25/19 A3009 RMK A01 T02490185  RH  067%=      5-min Rain = 0
KGO1 061441Z 30002KT 25/19 A3009 RMK A01 T02500186  RH  067%=      5-min Rain = 0
KGO1 061442Z 32002KT 25/19 A3009 RMK A01 T02500186  RH  068%=      5-min Rain = 0
KGO1 061443Z 36002KT 25/18 A3009 RMK A01 T02500184  RH  066%=      5-min Rain = 0
KGO1 061444Z 01002KT 25/18 A3009 RMK A01 T02520184  RH  066%=      5-min Rain = 0
KGO1 061445Z 01003KT 25/18 A3009 RMK A01 T02530184  RH  066%=      5-min Rain = 0
KGO1 061446Z 01002KT 25/18 A3009 RMK A01 T02520183  RH  066%=      5-min Rain = 0
KGO1 061447Z 35004KT 25/18 A3009 RMK A01 T02510182  RH  066%=      5-min Rain = 0
KGO1 061448Z 35004KT 25/18 A3009 RMK A01 T02490182  RH  066%=      5-min Rain = 0
KGO1 061449Z 36003KT 25/18 A3009 RMK A01 T02480184  RH  067%=      5-min Rain = 0
KGO1 061450Z 35003KT 25/18 A3009 RMK A01 T02480184  RH  067%=      5-min Rain = 0
KGO1 061451Z 34004KT 25/18 A3009 RMK A01 T02490182  RH  067%=      5-min Rain = 0
KGO1 061452Z 33004KT 25/18 A3009 RMK A01 T02490183  RH  067%=      5-min Rain = 0
KGO1 061453Z 32004KT 25/18 A3009 RMK A01 T02500184  RH  067%=      5-min Rain = 0
KGO1 061454Z 34003KT 25/19 A3009 RMK A01 T02510185  RH  067%=      5-min Rain = 0
KGO1 061455Z 03002KT 25/18 A3009 RMK A01 T02520184  RH  066%=      5-min Rain = 0
KGO1 061456Z 00001KT 26/19 A3009 RMK A01 T02550185  RH  065%=      5-min Rain = 0
KGO1 061457Z 02002KT 26/19 A3009 RMK A01 T02570185  RH  064%=      5-min Rain = 0
KGO1 061458Z 04002KT 26/18 A3009 RMK A01 T02580184  RH  064%=      5-min Rain = 0
KGO1 061459Z 04004KT 26/18 A3009 RMK A01 T02580184  RH  064%=      5-min Rain = 0
KGO1 061500Z 01005KT 26/19 A3009 RMK A01 T02570185  RH  065%=      5-min Rain = 0
KGO1 061501Z 01006KT 26/18 A3009 RMK A01 T02560184  RH  064%=      5-min Rain = 0
KGO1 061502Z 01005KT 26/19 A3009 RMK A01 T02550185  RH  065%=      5-min Rain = 0
KGO1 061503Z 36004KT 26/18 A3009 RMK A01 T02570182  RH  063%=      5-min Rain = 0
KGO1 061504Z 34004KT 26/18 A3009 RMK A01 T02550182  RH  064%=      5-min Rain = 0
KGO1 061505Z 31004KT 25/18 A3009 RMK A01 T02540184  RH  065%=      5-min Rain = 0
KGO1 061506Z 02005KT 25/18 A3009 RMK A01 T02540184  RH  065%=      5-min Rain = 0
KGO1 061507Z 02006KT 25/18 A3009 RMK A01 T02540182  RH  064%=      5-min Rain = 0
KGO1 061508Z 03007KT 25/18 A3009 RMK A01 T02540183  RH  065%=      5-min Rain = 0
KGO1 061509Z 03005KT 25/19 A3009 RMK A01 T02540185  RH  065%=      5-min Rain = 0
KGO1 061510Z 04004KT 26/19 A3009 RMK A01 T02560185  RH  065%=      5-min Rain = 0
KGO1 061511Z 06003KT 26/18 A3009 RMK A01 T02570183  RH  064%=      5-min Rain = 0
KGO1 061512Z 04004KT 26/18 A3009 RMK A01 T02570184  RH  064%=      5-min Rain = 0
KGO1 061513Z 05004KT 26/18 A3009 RMK A01 T02580184  RH  063%=      5-min Rain = 0
KGO1 061514Z 06003KT 26/18 A3009 RMK A01 T02590181  RH  062%=      5-min Rain = 0
KGO1 061515Z 05003KT 26/19 A3009 RMK A01 T02570185  RH  064%=      5-min Rain = 0
KGO1 061516Z 02006KT 26/19 A3009 RMK A01 T02580185  RH  064%=      5-min Rain = 0
KGO1 061517Z 02008KT 26/19 A3009 RMK A01 T02600185  RH  063%=      5-min Rain = 0
KGO1 061518Z 01006KT 26/19 A3009 RMK A01 T02600186  RH  064%=      5-min Rain = 0
KGO1 061519Z 01006KT 26/18 A3009 RMK A01 T02590184  RH  064%=      5-min Rain = 0
KGO1 061520Z 02005KT 26/19 A3009 RMK A01 T02570185  RH  064%=      5-min Rain = 0
KGO1 061521Z 01003KT 26/18 A3009 RMK A01 T02570184  RH  064%=      5-min Rain = 0
KGO1 061522Z 34002KT 26/18 A3009 RMK A01 T02560184  RH  065%=      5-min Rain = 0
KGO1 061523Z 01003KT 26/19 A3009 RMK A01 T02550185  RH  065%=      5-min Rain = 0
KGO1 061524Z 01007KT 26/19 A3009 RMK A01 T02560187  RH  066%=      5-min Rain = 0
KGO1 061525Z 00006KT 26/19 A3009 RMK A01 T02580187  RH  065%=      5-min Rain = 0
KGO1 061526Z 02005KT 26/19 A3009 RMK A01 T02580187  RH  065%=      5-min Rain = 0
KGO1 061527Z 02003KT 26/19 A3009 RMK A01 T02600186  RH  064%=      5-min Rain = 0
KGO1 061528Z 02004KT 26/19 A3009 RMK A01 T02610189  RH  065%=      5-min Rain = 0
KGO1 061529Z 02004KT 26/19 A3009 RMK A01 T02630188  RH  064%=      5-min Rain = 0
KGO1 061530Z 03005KT 26/19 A3009 RMK A01 T02640187  RH  062%=      5-min Rain = 0
KGO1 061531Z 03007KT 27/19 A3009 RMK A01 T02650186  RH  062%=      5-min Rain = 0
KGO1 061532Z 04005KT 26/19 A3009 RMK A01 T02630185  RH  062%=      5-min Rain = 0
KGO1 061533Z 03005KT 26/19 A3009 RMK A01 T02620185  RH  063%=      5-min Rain = 0
KGO1 061534Z 02003KT 26/19 A3009 RMK A01 T02610185  RH  063%=      5-min Rain = 0
KGO1 061535Z 02003KT 26/19 A3009 RMK A01 T02600186  RH  064%=      5-min Rain = 0
KGO1 061536Z 01006KT 26/19 A3009 RMK A01 T02610188  RH  064%=      5-min Rain = 0
KGO1 061537Z 02009KT 27/19 A3009 RMK A01 T02660187  RH  062%=      5-min Rain = 0
KGO1 061538Z 02008KT 27/19 A3009 RMK A01 T02690187  RH  061%=      5-min Rain = 0
KGO1 061539Z 01006KT 27/18 A3009 RMK A01 T02690184  RH  060%=      5-min Rain = 0
KGO1 061540Z 01005KT 27/18 A3009 RMK A01 T02650184  RH  061%=      5-min Rain = 0
KGO1 061541Z 02007KT 26/18 A3009 RMK A01 T02640183  RH  061%=      5-min Rain = 0
KGO1 061542Z 04007KT 26/19 A3009 RMK A01 T02640186  RH  062%=      5-min Rain = 0
KGO1 061543Z 04007KT 27/18 A3009 RMK A01 T02670182  RH  059%=      5-min Rain = 0
KGO1 061544Z 04004KT 27/18 A3009 RMK A01 T02680181  RH  059%=      5-min Rain = 0
KGO1 061545Z 05004KT 27/18 A3009 RMK A01 T02680182  RH  060%=      5-min Rain = 0
KGO1 061546Z 04004KT 27/18 A3009 RMK A01 T02670180  RH  059%=      5-min Rain = 0
KGO1 061547Z 03007KT 27/18 A3009 RMK A01 T02660181  RH  060%=      5-min Rain = 0
KGO1 061548Z 02007KT 26/18 A3009 RMK A01 T02640183  RH  061%=      5-min Rain = 0
KGO1 061549Z 02005KT 26/18 A3009 RMK A01 T02610180  RH  061%=      5-min Rain = 0
KGO1 061550Z 36006KT 26/18 A3009 RMK A01 T02570180  RH  062%=      5-min Rain = 0
KGO1 061551Z 00005KT 26/18 A3009 RMK A01 T02550179  RH  063%=      5-min Rain = 0
KGO1 061552Z 00004KT 25/18 A3009 RMK A01 T02540182  RH  064%=      5-min Rain = 0
KGO1 061553Z 35004KT 26/18 A3009 RMK A01 T02550181  RH  064%=      5-min Rain = 0
KGO1 061554Z 34002KT 26/18 A3009 RMK A01 T02580181  RH  063%=      5-min Rain = 0
KGO1 061555Z 01006KT 26/18 A3009 RMK A01 T02600183  RH  062%=      5-min Rain = 0
KGO1 061556Z 03006KT 26/19 A3009 RMK A01 T02640185  RH  062%=      5-min Rain = 0
KGO1 061557Z 02005KT 27/19 A3009 RMK A01 T02710188  RH  061%=      5-min Rain = 0
KGO1 061558Z 02005KT 28/19 A3009 RMK A01 T02750186  RH  058%=      5-min Rain = 0
KGO1 061559Z 04004KT 27/19 A3009 RMK A01 T02740188  RH  059%=      5-min Rain = 0
KGO1 061600Z 03005KT 27/19 A3009 RMK A01 T02740188  RH  059%=      5-min Rain = 0
KGO1 061601Z 03004KT 28/19 A3009 RMK A01 T02750186  RH  059%=      5-min Rain = 0
KGO1 061602Z 36007KT 27/19 A3009 RMK A01 T02740186  RH  059%=      5-min Rain = 0
KGO1 061603Z 00007KT 27/19 A3009 RMK A01 T02730187  RH  059%=      5-min Rain = 0
KGO1 061604Z 36007KT 27/18 A3009 RMK A01 T02710184  RH  059%=      5-min Rain = 0
KGO1 061605Z 35003KT 27/18 A3009 RMK A01 T02670184  RH  060%=      5-min Rain = 0
KGO1 061606Z 02003KT 27/19 A3009 RMK A01 T02660185  RH  061%=      5-min Rain = 0
KGO1 061607Z 02008KT 27/19 A3009 RMK A01 T02690188  RH  061%=      5-min Rain = 0
KGO1 061608Z 03007KT 27/18 A3009 RMK A01 T02730184  RH  058%=      5-min Rain = 0
KGO1 061609Z 03009KT 28/18 A3009 RMK A01 T02750183  RH  057%=      5-min Rain = 0
KGO1 061610Z 02009KT 28/18 A3009 RMK A01 T02780179  RH  055%=      5-min Rain = 0
KGO1 061611Z 03008KT 28/18 A3009 RMK A01 T02760178  RH  055%=      5-min Rain = 0
KGO1 061612Z 04008KT 27/18 A3009 RMK A01 T02740176  RH  055%=      5-min Rain = 0
KGO1 061613Z 03006KT 27/18 A3009 RMK A01 T02730178  RH  056%=      5-min Rain = 0
KGO1 061614Z 02005KT 27/18 A3009 RMK A01 T02710180  RH  058%=      5-min Rain = 0
KGO1 061615Z 00006KT 27/18 A3009 RMK A01 T02700179  RH  057%=      5-min Rain = 0
KGO1 061616Z 36006KT 27/18 A3009 RMK A01 T02700178  RH  057%=      5-min Rain = 0
KGO1 061617Z 34006KT 27/18 A3009 RMK A01 T02700180  RH  058%=      5-min Rain = 0
KGO1 061618Z 36005KT 27/18 A3009 RMK A01 T02700179  RH  057%=      5-min Rain = 0
KGO1 061619Z 02006KT 27/18 A3009 RMK A01 T02710182  RH  058%=      5-min Rain = 0
KGO1 061620Z 04005KT 27/18 A3009 RMK A01 T02710181  RH  058%=      5-min Rain = 0
KGO1 061621Z 05004KT 27/18 A3009 RMK A01 T02680181  RH  059%=      5-min Rain = 0
KGO1 061622Z 06003KT 27/18 A3009 RMK A01 T02670181  RH  059%=      5-min Rain = 0
KGO1 061623Z 04004KT 27/18 A3009 RMK A01 T02670182  RH  060%=      5-min Rain = 0
KGO1 061624Z 04006KT 27/18 A3009 RMK A01 T02680183  RH  059%=      5-min Rain = 0
KGO1 061625Z 01007KT 27/18 A3009 RMK A01 T02710182  RH  058%=      5-min Rain = 0
KGO1 061626Z 36004KT 27/18 A3009 RMK A01 T02710182  RH  058%=      5-min Rain = 0
KGO1 061627Z 04004KT 27/19 A3009 RMK A01 T02700185  RH  060%=      5-min Rain = 0
KGO1 061628Z 06005KT 27/18 A3009 RMK A01 T02720183  RH  058%=      5-min Rain = 0
KGO1 061629Z 04006KT 28/19 A3009 RMK A01 T02780185  RH  057%=      5-min Rain = 0
KGO1 061630Z 05006KT 28/18 A3009 RMK A01 T02810184  RH  056%=      5-min Rain = 0
KGO1 061631Z 03006KT 28/18 A3009 RMK A01 T02790181  RH  055%=      5-min Rain = 0
KGO1 061632Z 05003KT 28/18 A3009 RMK A01 T02750182  RH  057%=      5-min Rain = 0
KGO1 061633Z 05005KT 27/18 A3009 RMK A01 T02740182  RH  057%=      5-min Rain = 0
KGO1 061634Z 06006KT 28/18 A3009 RMK A01 T02750180  RH  056%=      5-min Rain = 0
KGO1 061635Z 06006KT 27/18 A3009 RMK A01 T02740181  RH  057%=      5-min Rain = 0
KGO1 061636Z 06004KT 27/18 A3009 RMK A01 T02740184  RH  058%=      5-min Rain = 0
KGO1 061637Z 04009KT 28/19 A3009 RMK A01 T02790185  RH  057%=      5-min Rain = 0
KGO1 061638Z 03008KT 28/18 A3009 RMK A01 T02830180  RH  054%=      5-min Rain = 0
KGO1 061639Z 03008KT 28/18 A3009 RMK A01 T02820181  RH  054%=      5-min Rain = 0
KGO1 061640Z 02007KT 28/18 A3009 RMK A01 T02790182  RH  056%=      5-min Rain = 0
KGO1 061641Z 02007KT 28/18 A3009 RMK A01 T02780183  RH  056%=      5-min Rain = 0
KGO1 061642Z 01005KT 28/18 A3009 RMK A01 T02760179  RH  055%=      5-min Rain = 0
KGO1 061643Z 02004KT 27/18 A3009 RMK A01 T02740182  RH  057%=      5-min Rain = 0
KGO1 061644Z 00005KT 28/18 A3009 RMK A01 T02770182  RH  056%=      5-min Rain = 0
KGO1 061645Z 01004KT 28/18 A3009 RMK A01 T02800181  RH  055%=      5-min Rain = 0
KGO1 061646Z 02004KT 28/18 A3009 RMK A01 T02800182  RH  055%=      5-min Rain = 0
KGO1 061647Z 00000KT 28/18 A3009 RMK A01 T02780182  RH  056%=      5-min Rain = 0
KGO1 061648Z 08002KT 28/18 A3009 RMK A01 T02770184  RH  057%=      5-min Rain = 0
KGO1 061649Z 06003KT 28/18 A3009 RMK A01 T02780182  RH  056%=      5-min Rain = 0
KGO1 061650Z 05005KT 28/18 A3009 RMK A01 T02790181  RH  055%=      5-min Rain = 0
KGO1 061651Z 03007KT 28/18 A3009 RMK A01 T02780181  RH  056%=      5-min Rain = 0
KGO1 061652Z 02006G11KT 28/18 A3009 RMK A01 T02780180  RH  055%=      5-min Rain = 0
KGO1 061653Z 02007KT 28/18 A3009 RMK A01 T02790179  RH  055%=      5-min Rain = 0
KGO1 061654Z 01006KT 28/18 A3009 RMK A01 T02780184  RH  056%=      5-min Rain = 0
KGO1 061655Z 01007KT 28/18 A3009 RMK A01 T02830177  RH  053%=      5-min Rain = 0
KGO1 061656Z 03009KT 28/18 A3009 RMK A01 T02810180  RH  054%=      5-min Rain = 0
KGO1 061657Z 02006KT 28/18 A3009 RMK A01 T02790177  RH  054%=      5-min Rain = 0
KGO1 061658Z 34007KT 28/18 A3009 RMK A01 T02790177  RH  054%=      5-min Rain = 0
KGO1 061659Z 35004KT 28/18 A3009 RMK A01 T02790179  RH  054%=      5-min Rain = 0
KGO1 061700Z 00005KT 28/18 A3009 RMK A01 T02790181  RH  055%=      5-min Rain = 0
KGO1 061701Z 03004KT 28/18 A301 RMK A01 T02820178  RH  053%=      5-min Rain = 0
KGO1 061702Z 04007KT 28/18 A301 RMK A01 T02840176  RH  052%=      5-min Rain = 0
KGO1 061703Z 05008KT 29/17 A301 RMK A01 T02860174  RH  051%=      5-min Rain = 0
KGO1 061704Z 05009KT 28/17 A301 RMK A01 T02840173  RH  051%=      5-min Rain = 0
KGO1 061705Z 03006KT 28/17 A301 RMK A01 T02820173  RH  052%=      5-min Rain = 0
KGO1 061706Z 03004KT 28/17 A301 RMK A01 T02800174  RH  052%=      5-min Rain = 0
KGO1 061707Z 01005KT 28/17 A301 RMK A01 T02800173  RH  052%=      5-min Rain = 0
KGO1 061708Z 00004G9KT 28/17 A301 RMK A01 T02780173  RH  053%=      5-min Rain = 0
KGO1 061709Z 05007G12KT 28/18 A301 RMK A01 T02780176  RH  054%=      5-min Rain = 0
KGO1 061710Z 06008KT 28/17 A301 RMK A01 T02830174  RH  052%=      5-min Rain = 0
KGO1 061711Z 07008KT 28/18 A301 RMK A01 T02830175  RH  052%=      5-min Rain = 0
KGO1 061712Z 07006KT 29/18 A301 RMK A01 T02880177  RH  051%=      5-min Rain = 0
KGO1 061713Z 09005KT 29/17 A301 RMK A01 T02910173  RH  049%=      5-min Rain = 0
KGO1 061714Z 07005KT 29/17 A301 RMK A01 T02890171  RH  049%=      5-min Rain = 0
KGO1 061715Z 07007KT 29/17 A301 RMK A01 T02870174  RH  050%=      5-min Rain = 0
KGO1 061716Z 06009KT 29/17 A301 RMK A01 T02900173  RH  049%=      5-min Rain = 0
KGO1 061717Z 05005KT 29/17 A301 RMK A01 T02890172  RH  049%=      5-min Rain = 0
KGO1 061718Z 03008KT 29/17 A301 RMK A01 T02860172  RH  050%=      5-min Rain = 0
KGO1 061719Z 03007KT 29/17 A301 RMK A01 T02870171  RH  050%=      5-min Rain = 0
KGO1 061720Z 03005KT 29/17 A301 RMK A01 T02870170  RH  049%=      5-min Rain = 0
KGO1 061721Z 05005KT 29/17 A301 RMK A01 T02850173  RH  051%=      5-min Rain = 0
KGO1 061722Z 03006KT 29/18 A301 RMK A01 T02850175  RH  051%=      5-min Rain = 0
KGO1 061723Z 01006KT 29/18 A301 RMK A01 T02880176  RH  051%=      5-min Rain = 0
KGO1 061724Z 02006KT 29/18 A301 RMK A01 T02900176  RH  050%=      5-min Rain = 0
KGO1 061725Z 03005KT 29/17 A301 RMK A01 T02920174  RH  049%=      5-min Rain = 0
KGO1 061726Z 05008KT 29/17 A301 RMK A01 T02910174  RH  050%=      5-min Rain = 0
KGO1 061727Z 04009KT 29/17 A301 RMK A01 T02910169  RH  048%=      5-min Rain = 0
KGO1 061728Z 05008KT 29/17 A301 RMK A01 T02920172  RH  048%=      5-min Rain = 0
KGO1 061729Z 04007KT 30/18 A301 RMK A01 T02950175  RH  049%=      5-min Rain = 0
KGO1 061730Z 04009KT 30/18 A301 RMK A01 T02950175  RH  048%=      5-min Rain = 0
KGO1 061731Z 05008KT 29/17 A301 RMK A01 T02940170  RH  047%=      5-min Rain = 0
KGO1 061732Z 02008KT 29/17 A301 RMK A01 T02930172  RH  048%=      5-min Rain = 0
KGO1 061733Z 04008KT 30/17 A301 RMK A01 T02950169  RH  047%=      5-min Rain = 0
KGO1 061734Z 03008KT 29/17 A301 RMK A01 T02910173  RH  049%=      5-min Rain = 0
KGO1 061735Z 01008KT 29/18 A301 RMK A01 T02910176  RH  050%=      5-min Rain = 0
KGO1 061736Z 01009KT 29/18 A301 RMK A01 T02930181  RH  051%=      5-min Rain = 0
KGO1 061737Z 02006KT 29/18 A301 RMK A01 T02940178  RH  050%=      5-min Rain = 0
KGO1 061738Z 02009G14KT 29/18 A301 RMK A01 T02890182  RH  052%=      5-min Rain = 0
KGO1 061739Z 03010KT 29/18 A301 RMK A01 T02910180  RH  051%=      5-min Rain = 0
KGO1 061740Z 01008KT 29/18 A301 RMK A01 T02940176  RH  049%=      5-min Rain = 0
KGO1 061741Z 01008KT 29/18 A301 RMK A01 T02940176  RH  049%=      5-min Rain = 0
KGO1 061742Z 03008KT 29/18 A301 RMK A01 T02910178  RH  051%=      5-min Rain = 0
KGO1 061743Z 03009KT 29/18 A301 RMK A01 T02920178  RH  050%=      5-min Rain = 0
KGO1 061744Z 05007KT 30/18 A301 RMK A01 T02950176  RH  049%=      5-min Rain = 0
KGO1 061745Z 06004KT 30/18 A301 RMK A01 T02950177  RH  049%=      5-min Rain = 0
KGO1 061746Z 03007KT 30/18 A301 RMK A01 T02970176  RH  048%=      5-min Rain = 0
KGO1 061747Z 02006KT 30/18 A301 RMK A01 T02950175  RH  048%=      5-min Rain = 0
KGO1 061748Z 02006KT 29/17 A301 RMK A01 T02930174  RH  049%=      5-min Rain = 0
KGO1 061749Z 03004KT 29/17 A301 RMK A01 T02900173  RH  049%=      5-min Rain = 0
KGO1 061750Z 05006KT 29/17 A301 RMK A01 T02880173  RH  050%=      5-min Rain = 0
KGO1 061751Z 07010KT 29/17 A301 RMK A01 T02900166  RH  047%=      5-min Rain = 0
KGO1 061752Z 07008KT 29/17 A301 RMK A01 T02930168  RH  047%=      5-min Rain = 0
KGO1 061753Z 03008KT 30/17 A301 RMK A01 T02960172  RH  047%=      5-min Rain = 0
KGO1 061754Z 06010KT 30/17 A301 RMK A01 T02980170  RH  046%=      5-min Rain = 0
KGO1 061755Z 07009KT 30/17 A301 RMK A01 T02980167  RH  045%=      5-min Rain = 0
KGO1 061756Z 07007KT 29/17 A301 RMK A01 T02940170  RH  047%=      5-min Rain = 0
KGO1 061757Z 07006KT 30/17 A301 RMK A01 T02960169  RH  046%=      5-min Rain = 0
KGO1 061758Z 06007KT 30/17 A301 RMK A01 T02960171  RH  047%=      5-min Rain = 0
KGO1 061759Z 07008KT 30/17 A301 RMK A01 T02970172  RH  047%=      5-min Rain = 0
KGO1 061800Z 07007KT 30/17 A301 RMK A01 T02990173  RH  047%=      5-min Rain = 0
KGO1 061801Z 07008KT 30/17 A301 RMK A01 T02990173  RH  047%=      5-min Rain = 0
KGO1 061802Z 08005KT 30/18 A301 RMK A01 T02990175  RH  047%=      5-min Rain = 0
KGO1 061803Z 06005KT 30/17 A301 RMK A01 T03010174  RH  046%=      5-min Rain = 0
KGO1 061804Z 07007KT 30/17 A301 RMK A01 T03030173  RH  046%=      5-min Rain = 0
KGO1 061805Z 04009KT 30/17 A301 RMK A01 T03030172  RH  046%=      5-min Rain = 0
KGO1 061806Z 04009KT 30/17 A301 RMK A01 T02980168  RH  045%=      5-min Rain = 0
KGO1 061807Z 06010KT 29/17 A301 RMK A01 T02930166  RH  046%=      5-min Rain = 0
KGO1 061808Z 06009KT 29/16 A301 RMK A01 T02920163  RH  046%=      5-min Rain = 0
KGO1 061809Z 05007KT 29/16 A301 RMK A01 T02920164  RH  046%=      5-min Rain = 0
KGO1 061810Z 06005KT 29/16 A301 RMK A01 T02930163  RH  046%=      5-min Rain = 0
KGO1 061811Z 07005KT 29/17 A301 RMK A01 T02930166  RH  046%=      5-min Rain = 0
KGO1 061812Z 06008KT 30/17 A301 RMK A01 T02970172  RH  047%=      5-min Rain = 0
KGO1 061813Z 05008KT 31/17 A301 RMK A01 T03050172  RH  045%=      5-min Rain = 0
KGO1 061814Z 04008KT 31/17 A301 RMK A01 T03080172  RH  044%=      5-min Rain = 0
KGO1 061815Z 04011KT 31/17 A301 RMK A01 T03080170  RH  044%=      5-min Rain = 0
KGO1 061816Z 02010KT 30/17 A301 RMK A01 T03030169  RH  044%=      5-min Rain = 0
KGO1 061817Z 03006KT 30/18 A301 RMK A01 T03000175  RH  047%=      5-min Rain = 0
KGO1 061818Z 07006KT 30/17 A301 RMK A01 T03040170  RH  045%=      5-min Rain = 0
KGO1 061819Z 03004KT 31/17 A301 RMK A01 T03050170  RH  044%=      5-min Rain = 0
KGO1 061820Z 02005KT 30/17 A301 RMK A01 T03040171  RH  045%=      5-min Rain = 0
KGO1 061821Z 02004KT 30/17 A301 RMK A01 T02990167  RH  045%=      5-min Rain = 0
KGO1 061822Z 04004KT 29/17 A301 RMK A01 T02930167  RH  047%=      5-min Rain = 0
KGO1 061823Z 03004KT 29/17 A3009 RMK A01 T02880166  RH  047%=      5-min Rain = 0
KGO1 061824Z 01008KT 29/17 A3009 RMK A01 T02850169  RH  049%=      5-min Rain = 0
KGO1 061825Z 02009KT 28/17 A3009 RMK A01 T02840167  RH  049%=      5-min Rain = 0
KGO1 061826Z 07006KT 28/17 A3009 RMK A01 T02830169  RH  050%=      5-min Rain = 0
KGO1 061827Z 09007KT 29/17 A3009 RMK A01 T02860166  RH  048%=      5-min Rain = 0
KGO1 061828Z 06008KT 29/17 A3009 RMK A01 T02900165  RH  047%=      5-min Rain = 0
KGO1 061829Z 06006KT 29/16 A3009 RMK A01 T02940164  RH  046%=      5-min Rain = 0
KGO1 061830Z 08008KT 30/17 A3009 RMK A01 T02950166  RH  046%=      5-min Rain = 0
KGO1 061831Z 08007KT 30/16 A3009 RMK A01 T02970163  RH  044%=      5-min Rain = 0
KGO1 061832Z 06008KT 30/17 A3009 RMK A01 T02980165  RH  045%=      5-min Rain = 0
KGO1 061833Z 08006KT 30/16 A3009 RMK A01 T03010164  RH  044%=      5-min Rain = 0
KGO1 061834Z 09004KT 30/16 A3009 RMK A01 T03020164  RH  044%=      5-min Rain = 0
KGO1 061835Z 11002KT 30/17 A3009 RMK A01 T03020166  RH  044%=      5-min Rain = 0
KGO1 061836Z 09007G12KT 30/16 A3009 RMK A01 T03010164  RH  044%=      5-min Rain = 0
KGO1 061837Z 09007KT 30/16 A3009 RMK A01 T03000164  RH  044%=      5-min Rain = 0
KGO1 061838Z 06011KT 30/17 A3009 RMK A01 T03000165  RH  044%=      5-min Rain = 0
KGO1 061839Z 08007KT 30/16 A3009 RMK A01 T03010163  RH  043%=      5-min Rain = 0
KGO1 061840Z 09005KT 30/16 A3009 RMK A01 T02990163  RH  044%=      5-min Rain = 0
KGO1 061841Z 09003KT 30/16 A3009 RMK A01 T02970164  RH  045%=      5-min Rain = 0
KGO1 061842Z 10005KT 30/16 A3009 RMK A01 T02970162  RH  044%=      5-min Rain = 0
KGO1 061843Z 08006KT 30/16 A3009 RMK A01 T02970163  RH  045%=      5-min Rain = 0
KGO1 061844Z 06007KT 30/16 A3009 RMK A01 T02990163  RH  044%=      5-min Rain = 0
KGO1 061845Z 08006KT 30/16 A3009 RMK A01 T03020162  RH  043%=      5-min Rain = 0
KGO1 061846Z 09007KT 30/16 A3009 RMK A01 T03030162  RH  043%=      5-min Rain = 0
KGO1 061847Z 08007KT 31/17 A3009 RMK A01 T03060170  RH  044%=      5-min Rain = 0
KGO1 061848Z 08009KT 31/17 A3009 RMK A01 T03140166  RH  041%=      5-min Rain = 0
KGO1 061849Z 09009KT 31/16 A3009 RMK A01 T03120162  RH  040%=      5-min Rain = 0
KGO1 061850Z 09009KT 31/16 A3009 RMK A01 T03100161  RH  041%=      5-min Rain = 0
KGO1 061851Z 08006KT 31/16 A3009 RMK A01 T03060163  RH  042%=      5-min Rain = 0
KGO1 061852Z 09006KT 30/16 A3009 RMK A01 T03040164  RH  043%=      5-min Rain = 0
KGO1 061853Z 05006KT 31/17 A3009 RMK A01 T03080168  RH  043%=      5-min Rain = 0
KGO1 061854Z 04010KT 31/17 A3009 RMK A01 T03130169  RH  042%=      5-min Rain = 0
KGO1 061855Z 05008KT 31/16 A3009 RMK A01 T03140162  RH  040%=      5-min Rain = 0
KGO1 061856Z 05004KT 31/16 A3009 RMK A01 T03080161  RH  041%=      5-min Rain = 0
KGO1 061857Z 05004KT 31/16 A3009 RMK A01 T03050164  RH  043%=      5-min Rain = 0
KGO1 061858Z 05004KT 31/17 A3008 RMK A01 T03050165  RH  043%=      5-min Rain = 0
KGO1 061859Z 03003KT 31/17 A3008 RMK A01 T03050165  RH  043%=      5-min Rain = 0
KGO1 061900Z 08005KT 31/16 A3008 RMK A01 T03050164  RH  042%=      5-min Rain = 0
KGO1 061901Z 07007KT 30/17 A3008 RMK A01 T03040165  RH  043%=      5-min Rain = 0
KGO1 061902Z 07010KT 31/16 A3008 RMK A01 T03050164  RH  043%=      5-min Rain = 0
KGO1 061903Z 06011KT 31/17 A3008 RMK A01 T03060165  RH  043%=      5-min Rain = 0
KGO1 061904Z 07009KT 31/16 A3008 RMK A01 T03050164  RH  043%=      5-min Rain = 0
KGO1 061905Z 06005KT 31/17 A3008 RMK A01 T03050165  RH  043%=      5-min Rain = 0
KGO1 061906Z 08006KT 31/16 A3008 RMK A01 T03050163  RH  042%=      5-min Rain = 0
KGO1 061907Z 07007KT 31/17 A3008 RMK A01 T03050167  RH  043%=      5-min Rain = 0
KGO1 061908Z 07009KT 31/17 A3008 RMK A01 T03100167  RH  042%=      5-min Rain = 0
KGO1 061909Z 07006KT 31/17 A3008 RMK A01 T03130166  RH  041%=      5-min Rain = 0
KGO1 061910Z 05007KT 31/17 A3008 RMK A01 T03140168  RH  042%=      5-min Rain = 0
KGO1 061911Z 06009KT 31/16 A3008 RMK A01 T03140163  RH  040%=      5-min Rain = 0
KGO1 061912Z 06006KT 31/16 A3008 RMK A01 T03100160  RH  040%=      5-min Rain = 0
KGO1 061913Z 07006KT 31/16 A3008 RMK A01 T03050161  RH  042%=      5-min Rain = 0
KGO1 061914Z 06009KT 30/16 A3008 RMK A01 T03030161  RH  042%=      5-min Rain = 0
KGO1 061915Z 05005KT 30/16 A3008 RMK A01 T03020161  RH  042%=      5-min Rain = 0
KGO1 061916Z 05003KT 30/16 A3008 RMK A01 T03010161  RH  043%=      5-min Rain = 0
KGO1 061917Z 03006KT 30/16 A3007 RMK A01 T03010163  RH  043%=      5-min Rain = 0
KGO1 061918Z 01004KT 30/17 A3007 RMK A01 T03010165  RH  044%=      5-min Rain = 0
KGO1 061919Z 04003KT 30/17 A3007 RMK A01 T03030165  RH  043%=      5-min Rain = 0
KGO1 061920Z 09004KT 30/16 A3007 RMK A01 T03040162  RH  042%=      5-min Rain = 0
KGO1 061921Z 08002KT 30/16 A3007 RMK A01 T03030161  RH  042%=      5-min Rain = 0
KGO1 061922Z 10002KT 30/16 A3007 RMK A01 T03010162  RH  043%=      5-min Rain = 0
KGO1 061923Z 10003KT 30/16 A3007 RMK A01 T03010163  RH  043%=      5-min Rain = 0
KGO1 061924Z 04002KT 30/17 A3007 RMK A01 T03020165  RH  044%=      5-min Rain = 0
KGO1 061925Z 06004KT 30/16 A3007 RMK A01 T03040164  RH  043%=      5-min Rain = 0
KGO1 061926Z 04004KT 30/16 A3007 RMK A01 T03040163  RH  043%=      5-min Rain = 0
KGO1 061927Z 04003KT 30/16 A3007 RMK A01 T03030164  RH  043%=      5-min Rain = 0
KGO1 061928Z 00004KT 30/17 A3007 RMK A01 T03010165  RH  044%=      5-min Rain = 0
KGO1 061929Z 04002KT 30/17 A3007 RMK A01 T03010166  RH  044%=      5-min Rain = 0
KGO1 061930Z 03004KT 30/17 A3007 RMK A01 T03020166  RH  044%=      5-min Rain = 0
KGO1 061931Z 04006KT 30/17 A3007 RMK A01 T03020168  RH  044%=      5-min Rain = 0
KGO1 061932Z 05007KT 31/17 A3007 RMK A01 T03060167  RH  043%=      5-min Rain = 0
KGO1 061933Z 06006KT 31/17 A3007 RMK A01 T03080170  RH  044%=      5-min Rain = 0
KGO1 061934Z 08006KT 31/17 A3007 RMK A01 T03120168  RH  042%=      5-min Rain = 0
KGO1 061935Z 08004KT 31/17 A3007 RMK A01 T03120167  RH  042%=      5-min Rain = 0
KGO1 061936Z 06002KT 31/17 A3007 RMK A01 T03110170  RH  043%=      5-min Rain = 0
KGO1 061937Z 03005KT 31/17 A3007 RMK A01 T03110168  RH  042%=      5-min Rain = 0
KGO1 061938Z 04007KT 31/17 A3007 RMK A01 T03090168  RH  043%=      5-min Rain = 0
KGO1 061939Z 06008KT 31/17 A3007 RMK A01 T03080169  RH  043%=      5-min Rain = 0
KGO1 061940Z 05008KT 31/17 A3007 RMK A01 T03100167  RH  042%=      5-min Rain = 0
KGO1 061941Z 05006KT 31/17 A3007 RMK A01 T03130166  RH  041%=      5-min Rain = 0
KGO1 061942Z 08008KT 31/17 A3007 RMK A01 T03130166  RH  041%=      5-min Rain = 0
KGO1 061943Z 08006KT 31/16 A3007 RMK A01 T03120161  RH  040%=      5-min Rain = 0
KGO1 061944Z 08006KT 31/16 A3007 RMK A01 T03090160  RH  041%=      5-min Rain = 0
KGO1 061945Z 10005KT 31/16 A3007 RMK A01 T03070161  RH  041%=      5-min Rain = 0
KGO1 061946Z 08004KT 31/16 A3007 RMK A01 T03080161  RH  041%=      5-min Rain = 0
KGO1 061947Z 08005KT 31/16 A3006 RMK A01 T03080163  RH  042%=      5-min Rain = 0
KGO1 061948Z 07006KT 31/16 A3006 RMK A01 T03090163  RH  041%=      5-min Rain = 0
KGO1 061949Z 07007KT 31/16 A3006 RMK A01 T03100162  RH  041%=      5-min Rain = 0
KGO1 061950Z 08006KT 31/16 A3006 RMK A01 T03080158  RH  040%=      5-min Rain = 0
KGO1 061951Z 07004KT 31/16 A3006 RMK A01 T03060158  RH  041%=      5-min Rain = 0
KGO1 061952Z 07004KT 31/16 A3006 RMK A01 T03060156  RH  040%=      5-min Rain = 0
KGO1 061953Z 06007KT 31/16 A3006 RMK A01 T03050157  RH  041%=      5-min Rain = 0
KGO1 061954Z 06008KT 31/16 A3006 RMK A01 T03060158  RH  041%=      5-min Rain = 0
KGO1 061955Z 08007KT 31/16 A3006 RMK A01 T03070156  RH  040%=      5-min Rain = 0
KGO1 061956Z 10006KT 31/16 A3006 RMK A01 T03080159  RH  041%=      5-min Rain = 0
KGO1 061957Z 08006KT 31/16 A3006 RMK A01 T03120162  RH  040%=      5-min Rain = 0
KGO1 061958Z 03006KT 31/16 A3006 RMK A01 T03140162  RH  040%=      5-min Rain = 0
KGO1 061959Z 03008KT 31/16 A3006 RMK A01 T03130160  RH  040%=      5-min Rain = 0
KGO1 062000Z 07008KT 31/16 A3006 RMK A01 T03110160  RH  040%=      5-min Rain = 0
KGO1 062001Z 07005KT 31/16 A3006 RMK A01 T03100162  RH  041%=      5-min Rain = 0
KGO1 062002Z 04007KT 31/16 A3006 RMK A01 T03120161  RH  040%=      5-min Rain = 0
KGO1 062003Z 05007KT 31/16 A3006 RMK A01 T03120161  RH  040%=      5-min Rain = 0
KGO1 062004Z 04004KT 31/16 A3006 RMK A01 T03110159  RH  040%=      5-min Rain = 0
KGO1 062005Z 04003KT 31/16 A3006 RMK A01 T03090159  RH  040%=      5-min Rain = 0
KGO1 062006Z 09004KT 31/16 A3006 RMK A01 T03080162  RH  041%=      5-min Rain = 0
KGO1 062007Z 12001KT 31/16 A3006 RMK A01 T03070162  RH  041%=      5-min Rain = 0
KGO1 062008Z 11005KT 31/16 A3006 RMK A01 T03080164  RH  042%=      5-min Rain = 0
KGO1 062009Z 10007KT 31/17 A3006 RMK A01 T03110165  RH  041%=      5-min Rain = 0
KGO1 062010Z 07009G14KT 32/17 A3006 RMK A01 T03150166  RH  041%=      5-min Rain = 0
KGO1 062011Z 07008KT 32/16 A3006 RMK A01 T03180164  RH  040%=      5-min Rain = 0
KGO1 062012Z 09007KT 32/17 A3006 RMK A01 T03180167  RH  040%=      5-min Rain = 0
KGO1 062013Z 09005KT 32/16 A3006 RMK A01 T03180163  RH  039%=      5-min Rain = 0
KGO1 062014Z 11003KT 32/16 A3006 RMK A01 T03170164  RH  040%=      5-min Rain = 0
KGO1 062015Z 12007KT 32/17 A3006 RMK A01 T03150167  RH  041%=      5-min Rain = 0
KGO1 062016Z 11006KT 32/16 A3006 RMK A01 T03150162  RH  040%=      5-min Rain = 0
KGO1 062017Z 09004KT 31/16 A3006 RMK A01 T03130164  RH  041%=      5-min Rain = 0
KGO1 062018Z 11005KT 31/16 A3006 RMK A01 T03120164  RH  041%=      5-min Rain = 0
KGO1 062019Z 07003KT 31/16 A3006 RMK A01 T03120162  RH  040%=      5-min Rain = 0
KGO1 062020Z 07004KT 31/16 A3006 RMK A01 T03100162  RH  041%=      5-min Rain = 0
KGO1 062021Z 07003KT 31/16 A3006 RMK A01 T03090162  RH  041%=      5-min Rain = 0
KGO1 062022Z 08005KT 31/16 A3006 RMK A01 T03100164  RH  041%=      5-min Rain = 0
KGO1 062023Z 05004KT 31/16 A3006 RMK A01 T03120163  RH  041%=      5-min Rain = 0
KGO1 062024Z 03004KT 31/16 A3006 RMK A01 T03120162  RH  040%=      5-min Rain = 0
KGO1 062025Z 25003KT 31/16 A3006 RMK A01 T03100161  RH  041%=      5-min Rain = 0
KGO1 062026Z 02003G9KT 31/17 A3005 RMK A01 T03070167  RH  043%=      5-min Rain = 0
KGO1 062027Z 04007KT 31/17 A3006 RMK A01 T03110165  RH  041%=      5-min Rain = 0
KGO1 062028Z 01005KT 31/17 A3005 RMK A01 T03130167  RH  042%=      5-min Rain = 0
KGO1 062029Z 04004KT 31/16 A3005 RMK A01 T03140164  RH  041%=      5-min Rain = 0
KGO1 062030Z 06004KT 31/17 A3005 RMK A01 T03130167  RH  042%=      5-min Rain = 0
KGO1 062031Z 09005KT 31/16 A3005 RMK A01 T03130164  RH  041%=      5-min Rain = 0
KGO1 062032Z 07007KT 31/16 A3005 RMK A01 T03120164  RH  041%=      5-min Rain = 0
KGO1 062033Z 07008KT 31/16 A3005 RMK A01 T03120163  RH  041%=      5-min Rain = 0
KGO1 062034Z 08005KT 31/16 A3005 RMK A01 T03130164  RH  041%=      5-min Rain = 0
KGO1 062035Z 07008KT 31/17 A3005 RMK A01 T03140166  RH  041%=      5-min Rain = 0
KGO1 062036Z 07006KT 32/17 A3005 RMK A01 T03150165  RH  041%=      5-min Rain = 0
KGO1 062037Z 06005KT 32/16 A3005 RMK A01 T03150164  RH  040%=      5-min Rain = 0
KGO1 062038Z 07008KT 31/17 A3005 RMK A01 T03140169  RH  042%=      5-min Rain = 0
KGO1 062039Z 07006KT 32/17 A3005 RMK A01 T03180167  RH  040%=      5-min Rain = 0
KGO1 062040Z 06006KT 32/17 A3005 RMK A01 T03200165  RH  039%=      5-min Rain = 0
KGO1 062041Z 06005KT 32/17 A3005 RMK A01 T03180165  RH  040%=      5-min Rain = 0
KGO1 062042Z 06005KT 32/17 A3005 RMK A01 T03170166  RH  040%=      5-min Rain = 0
KGO1 062043Z 04005KT 32/16 A3005 RMK A01 T03170164  RH  040%=      5-min Rain = 0
KGO1 062044Z 04004KT 32/17 A3005 RMK A01 T03150169  RH  042%=      5-min Rain = 0
KGO1 062045Z 06009KT 32/17 A3005 RMK A01 T03170170  RH  041%=      5-min Rain = 0
KGO1 062046Z 07007KT 32/17 A3005 RMK A01 T03200166  RH  040%=      5-min Rain = 0
KGO1 062047Z 07007KT 32/17 A3005 RMK A01 T03210170  RH  041%=      5-min Rain = 0
KGO1 062048Z 07007KT 32/17 A3005 RMK A01 T03230167  RH  039%=      5-min Rain = 0
KGO1 062049Z 09006KT 32/17 A3005 RMK A01 T03230166  RH  039%=      5-min Rain = 0
KGO1 062050Z 09005G11KT 32/17 A3005 RMK A01 T03210168  RH  040%=      5-min Rain = 0
KGO1 062051Z 08008KT 32/17 A3004 RMK A01 T03210165  RH  039%=      5-min Rain = 0
KGO1 062052Z 07006KT 32/17 A3004 RMK A01 T03180165  RH  040%=      5-min Rain = 0
KGO1 062053Z 07004KT 32/16 A3004 RMK A01 T03170164  RH  040%=      5-min Rain = 0
KGO1 062054Z 11004KT 32/16 A3004 RMK A01 T03150164  RH  040%=      5-min Rain = 0
KGO1 062055Z 10004KT 32/16 A3004 RMK A01 T03150163  RH  040%=      5-min Rain = 0
KGO1 062056Z 11002KT 32/16 A3004 RMK A01 T03150164  RH  040%=      5-min Rain = 0
KGO1 062057Z 11002KT 31/16 A3004 RMK A01 T03130164  RH  041%=      5-min Rain = 0
KGO1 062058Z 11002KT 31/17 A3004 RMK A01 T03130165  RH  041%=      5-min Rain = 0
KGO1 062059Z 08004KT 31/17 A3004 RMK A01 T03140166  RH  041%=      5-min Rain = 0
KGO1 062100Z 07007G12KT 32/17 A3004 RMK A01 T03170169  RH  041%=      5-min Rain = 0
KGO1 062101Z 07009KT 32/17 A3004 RMK A01 T03190165  RH  040%=      5-min Rain = 0
KGO1 062102Z 07007KT 32/17 A3004 RMK A01 T03160167  RH  041%=      5-min Rain = 0
KGO1 062103Z 05006KT 32/17 A3004 RMK A01 T03150167  RH  041%=      5-min Rain = 0
KGO1 062104Z 04006KT 32/17 A3004 RMK A01 T03150166  RH  041%=      5-min Rain = 0
KGO1 062105Z 07005KT 32/17 A3004 RMK A01 T03150169  RH  042%=      5-min Rain = 0
KGO1 062106Z 08007KT 32/17 A3004 RMK A01 T03170167  RH  041%=      5-min Rain = 0
KGO1 062107Z 07003KT 32/16 A3004 RMK A01 T03180164  RH  040%=      5-min Rain = 0
KGO1 062108Z 07007G12KT 32/17 A3004 RMK A01 T03170166  RH  040%=      5-min Rain = 0
KGO1 062109Z 07009KT 32/17 A3004 RMK A01 T03170165  RH  040%=      5-min Rain = 0
KGO1 062110Z 08007KT 32/17 A3004 RMK A01 T03180167  RH  040%=      5-min Rain = 0
KGO1 062111Z 09007KT 32/17 A3004 RMK A01 T03190167  RH  040%=      5-min Rain = 0
KGO1 062112Z 09009KT 32/16 A3004 RMK A01 T03200164  RH  039%=      5-min Rain = 0
KGO1 062113Z 07005KT 32/16 A3004 RMK A01 T03200164  RH  039%=      5-min Rain = 0
KGO1 062114Z 09008KT 32/16 A3004 RMK A01 T03210162  RH  039%=      5-min Rain = 0
KGO1 062115Z 09008KT 32/16 A3004 RMK A01 T03170163  RH  039%=      5-min Rain = 0
KGO1 062116Z 08004KT 32/16 A3004 RMK A01 T03160161  RH  039%=      5-min Rain = 0
KGO1 062117Z 11004KT 32/16 A3004 RMK A01 T03160163  RH  040%=      5-min Rain = 0
KGO1 062118Z 12004KT 32/16 A3004 RMK A01 T03180163  RH  039%=      5-min Rain = 0
KGO1 062119Z 08006KT 32/17 A3004 RMK A01 T03180165  RH  040%=      5-min Rain = 0
KGO1 062120Z 07006KT 32/16 A3004 RMK A01 T03180163  RH  039%=      5-min Rain = 0
KGO1 062121Z 03005KT 32/17 A3004 RMK A01 T03180165  RH  040%=      5-min Rain = 0
KGO1 062122Z 03006KT 32/17 A3004 RMK A01 T03190169  RH  041%=      5-min Rain = 0
KGO1 062123Z 04006KT 32/17 A3004 RMK A01 T03220169  RH  040%=      5-min Rain = 0
KGO1 062124Z 05006KT 32/17 A3004 RMK A01 T03220166  RH  039%=      5-min Rain = 0
KGO1 062125Z 05008KT 32/17 A3004 RMK A01 T03200169  RH  040%=      5-min Rain = 0
KGO1 062126Z 04007KT 32/17 A3004 RMK A01 T03220168  RH  040%=      5-min Rain = 0
KGO1 062127Z 04007KT 32/17 A3004 RMK A01 T03240168  RH  039%=      5-min Rain = 0
KGO1 062128Z 05004KT 33/17 A3004 RMK A01 T03260167  RH  039%=      5-min Rain = 0
KGO1 062129Z 05006KT 32/17 A3004 RMK A01 T03230166  RH  039%=      5-min Rain = 0
KGO1 062130Z 05007KT 32/17 A3004 RMK A01 T03210169  RH  040%=      5-min Rain = 0
KGO1 062131Z 05005KT 32/17 A3004 RMK A01 T03200168  RH  040%=      5-min Rain = 0
KGO1 062132Z 04003KT 32/17 A3004 RMK A01 T03190167  RH  040%=      5-min Rain = 0
KGO1 062133Z 06004KT 32/17 A3004 RMK A01 T03180168  RH  041%=      5-min Rain = 0
KGO1 062134Z 06005KT 32/17 A3004 RMK A01 T03170171  RH  042%=      5-min Rain = 0
KGO1 062135Z 07006KT 32/17 A3004 RMK A01 T03180170  RH  041%=      5-min Rain = 0
KGO1 062136Z 05005KT 32/17 A3004 RMK A01 T03180168  RH  041%=      5-min Rain = 0
KGO1 062137Z 05008KT 32/17 A3004 RMK A01 T03170171  RH  042%=      5-min Rain = 0
KGO1 062138Z 05011KT 32/17 A3004 RMK A01 T03210169  RH  040%=      5-min Rain = 0
KGO1 062139Z 04007KT 32/17 A3004 RMK A01 T03230169  RH  040%=      5-min Rain = 0
KGO1 062140Z 06010KT 33/17 A3004 RMK A01 T03250165  RH  038%=      5-min Rain = 0
KGO1 062141Z 06009KT 32/17 A3004 RMK A01 T03230166  RH  039%=      5-min Rain = 0
KGO1 062142Z 06006KT 32/17 A3004 RMK A01 T03210166  RH  040%=      5-min Rain = 0
KGO1 062143Z 06008KT 32/17 A3004 RMK A01 T03210166  RH  039%=      5-min Rain = 0
KGO1 062144Z 06008KT 32/17 A3004 RMK A01 T03220167  RH  040%=      5-min Rain = 0
KGO1 062145Z 07006KT 32/17 A3004 RMK A01 T03240167  RH  039%=      5-min Rain = 0
KGO1 062146Z 06009KT 33/16 A3004 RMK A01 T03250164  RH  038%=      5-min Rain = 0
KGO1 062147Z 08007KT 32/17 A3004 RMK A01 T03240166  RH  039%=      5-min Rain = 0
KGO1 062148Z 06009KT 32/16 A3004 RMK A01 T03240163  RH  038%=      5-min Rain = 0
KGO1 062149Z 06007KT 32/16 A3004 RMK A01 T03220162  RH  038%=      5-min Rain = 0
KGO1 062150Z 09008KT 32/16 A3004 RMK A01 T03220164  RH  039%=      5-min Rain = 0
KGO1 062151Z 11008KT 32/17 A3004 RMK A01 T03210167  RH  039%=      5-min Rain = 0
KGO1 062152Z 10005KT 32/17 A3004 RMK A01 T03220166  RH  039%=      5-min Rain = 0
KGO1 062153Z 11004KT 32/17 A3004 RMK A01 T03240166  RH  039%=      5-min Rain = 0
KGO1 062154Z 07005KT 32/17 A3004 RMK A01 T03240166  RH  039%=      5-min Rain = 0
KGO1 062155Z 09003KT 33/17 A3004 RMK A01 T03250166  RH  039%=      5-min Rain = 0
KGO1 062156Z 05003KT 33/17 A3004 RMK A01 T03260167  RH  039%=      5-min Rain = 0
KGO1 062157Z 04007KT 33/17 A3004 RMK A01 T03270165  RH  038%=      5-min Rain = 0
KGO1 062158Z 03006KT 33/17 A3004 RMK A01 T03290167  RH  038%=      5-min Rain = 0
KGO1 062159Z 05005KT 33/17 A3004 RMK A01 T03260166  RH  038%=      5-min Rain = 0
KGO1 062200Z 05004KT 32/17 A3004 RMK A01 T03230167  RH  039%=      5-min Rain = 0
KGO1 062201Z 07007KT 32/17 A3004 RMK A01 T03220168  RH  040%=      5-min Rain = 0
KGO1 062202Z 08006KT 32/17 A3004 RMK A01 T03230171  RH  040%=      5-min Rain = 0
KGO1 062203Z 10009KT 33/17 A3004 RMK A01 T03260168  RH  039%=      5-min Rain = 0
KGO1 062204Z 11007KT 32/17 A3004 RMK A01 T03240168  RH  039%=      5-min Rain = 0
KGO1 062205Z 10009KT 32/17 A3004 RMK A01 T03220168  RH  040%=      5-min Rain = 0
KGO1 062206Z 09009KT 32/17 A3004 RMK A01 T03210165  RH  039%=      5-min Rain = 0
KGO1 062207Z 09009KT 32/17 A3004 RMK A01 T03220165  RH  039%=      5-min Rain = 0
KGO1 062208Z 09009KT 33/16 A3004 RMK A01 T03250162  RH  038%=      5-min Rain = 0
KGO1 062209Z 07008KT 32/16 A3004 RMK A01 T03230163  RH  038%=      5-min Rain = 0
KGO1 062210Z 06008KT 32/16 A3004 RMK A01 T03220161  RH  038%=      5-min Rain = 0
KGO1 062211Z 07006KT 32/16 A3004 RMK A01 T03180162  RH  039%=      5-min Rain = 0
KGO1 062212Z 09006KT 32/16 A3004 RMK A01 T03190164  RH  039%=      5-min Rain = 0
KGO1 062213Z 09006KT 32/16 A3004 RMK A01 T03210164  RH  039%=      5-min Rain = 0
KGO1 062214Z 08006KT 32/16 A3004 RMK A01 T03220162  RH  038%=      5-min Rain = 0
KGO1 062215Z 06008KT 32/17 A3004 RMK A01 T03220165  RH  039%=      5-min Rain = 0
KGO1 062216Z 07007KT 32/16 A3004 RMK A01 T03220164  RH  039%=      5-min Rain = 0
KGO1 062217Z 07009KT 32/17 A3004 RMK A01 T03200169  RH  040%=      5-min Rain = 0
KGO1 062218Z 08008KT 32/18 A3004 RMK A01 T03200179  RH  043%=      5-min Rain = 0
KGO1 062219Z 08009KT 32/18 A3004 RMK A01 T03190182  RH  044%=      5-min Rain = 0
KGO1 062220Z 10010KT 32/18 A3004 RMK A01 T03180181  RH  044%=      5-min Rain = 0
KGO1 062221Z 10009KT 32/18 A3004 RMK A01 T03180182  RH  044%=      5-min Rain = 0
KGO1 062222Z 10012KT 32/18 A3004 RMK A01 T03210183  RH  044%=      5-min Rain = 0
KGO1 062223Z 10012KT 32/18 A3004 RMK A01 T03220180  RH  043%=      5-min Rain = 0
KGO1 062224Z 10011KT 32/18 A3004 RMK A01 T03200182  RH  044%=      5-min Rain = 0
KGO1 062225Z 10012KT 32/18 A3004 RMK A01 T03180182  RH  044%=      5-min Rain = 0
KGO1 062226Z 11013KT 32/18 A3004 RMK A01 T03160181  RH  045%=      5-min Rain = 0
KGO1 062227Z 09011G16KT 32/18 A3004 RMK A01 T03150178  RH  044%=      5-min Rain = 0
KGO1 062228Z 11013G18KT 32/18 A3004 RMK A01 T03150182  RH  045%=      5-min Rain = 0
KGO1 062229Z 10010KT 32/18 A3004 RMK A01 T03150179  RH  044%=      5-min Rain = 0
KGO1 062230Z 12009KT 31/18 A3004 RMK A01 T03140181  RH  045%=      5-min Rain = 0
KGO1 062231Z 12009KT 31/18 A3004 RMK A01 T03140183  RH  046%=      5-min Rain = 0
KGO1 062232Z 12010KT 32/18 A3004 RMK A01 T03150183  RH  045%=      5-min Rain = 0
KGO1 062233Z 11011KT 32/18 A3004 RMK A01 T03150179  RH  044%=      5-min Rain = 0
KGO1 062234Z 12011KT 32/18 A3004 RMK A01 T03150178  RH  044%=      5-min Rain = 0
KGO1 062235Z 11012KT 32/18 A3004 RMK A01 T03150178  RH  044%=      5-min Rain = 0
KGO1 062236Z 12012KT 32/18 A3004 RMK A01 T03170177  RH  043%=      5-min Rain = 0
KGO1 062237Z 11012KT 32/18 A3004 RMK A01 T03160177  RH  043%=      5-min Rain = 0
KGO1 062238Z 11011KT 32/18 A3004 RMK A01 T03150178  RH  044%=      5-min Rain = 0
KGO1 062239Z 09011G16KT 32/18 A3004 RMK A01 T03150182  RH  045%=      5-min Rain = 0
KGO1 062240Z 11013KT 32/18 A3004 RMK A01 T03150179  RH  044%=      5-min Rain = 0
KGO1 062241Z 11010KT 31/18 A3004 RMK A01 T03130180  RH  045%=      5-min Rain = 0
KGO1 062242Z 11012KT 31/18 A3004 RMK A01 T03130180  RH  045%=      5-min Rain = 0
KGO1 062243Z 10010KT 32/18 A3004 RMK A01 T03150181  RH  045%=      5-min Rain = 0
KGO1 062244Z 09012KT 32/18 A3004 RMK A01 T03180178  RH  043%=      5-min Rain = 0
KGO1 062245Z 09011KT 32/18 A3004 RMK A01 T03160177  RH  043%=      5-min Rain = 0
KGO1 062246Z 11010KT 31/18 A3004 RMK A01 T03140177  RH  044%=      5-min Rain = 0
KGO1 062247Z 12010KT 31/18 A3004 RMK A01 T03140175  RH  044%=      5-min Rain = 0
KGO1 062248Z 10011KT 31/18 A3004 RMK A01 T03130177  RH  044%=      5-min Rain = 0
KGO1 062249Z 10011KT 31/18 A3004 RMK A01 T03140177  RH  044%=      5-min Rain = 0
KGO1 062250Z 10009KT 31/18 A3004 RMK A01 T03140177  RH  044%=      5-min Rain = 0
KGO1 062251Z 10011KT 32/18 A3004 RMK A01 T03160178  RH  044%=      5-min Rain = 0
KGO1 062252Z 09011KT 32/17 A3004 RMK A01 T03180174  RH  042%=      5-min Rain = 0
KGO1 062253Z 08012KT 32/18 A3004 RMK A01 T03150177  RH  044%=      5-min Rain = 0
KGO1 062254Z 08011KT 31/18 A3004 RMK A01 T03120179  RH  045%=      5-min Rain = 0
KGO1 062255Z 08013KT 31/18 A3004 RMK A01 T03110178  RH  045%=      5-min Rain = 0
KGO1 062256Z 09015KT 31/18 A3004 RMK A01 T03100177  RH  045%=      5-min Rain = 0
KGO1 062257Z 11011G16KT 31/18 A3004 RMK A01 T03090176  RH  045%=      5-min Rain = 0
KGO1 062258Z 12012KT 31/18 A3004 RMK A01 T03070176  RH  046%=      5-min Rain = 0
KGO1 062259Z 09010KT 30/18 A3004 RMK A01 T03040177  RH  046%=      5-min Rain = 0
KGO1 062300Z 09012KT 30/18 A3004 RMK A01 T03040175  RH  046%=      5-min Rain = 0
KGO1 062301Z 09012KT 31/18 A3004 RMK A01 T03060175  RH  046%=      5-min Rain = 0
KGO1 062302Z 08010KT 31/17 A3004 RMK A01 T03090174  RH  045%=      5-min Rain = 0
KGO1 062303Z 09012KT 31/18 A3004 RMK A01 T03090178  RH  045%=      5-min Rain = 0
KGO1 062304Z 09010KT 31/18 A3004 RMK A01 T03090181  RH  046%=      5-min Rain = 0
KGO1 062305Z 08010KT 31/18 A3004 RMK A01 T03090183  RH  047%=      5-min Rain = 0
KGO1 062306Z 10012KT 31/18 A3004 RMK A01 T03110182  RH  046%=      5-min Rain = 0
KGO1 062307Z 10011KT 31/18 A3004 RMK A01 T03120178  RH  045%=      5-min Rain = 0
KGO1 062308Z 10012KT 31/18 A3004 RMK A01 T03130177  RH  044%=      5-min Rain = 0
KGO1 062309Z 09013KT 31/18 A3004 RMK A01 T03120178  RH  045%=      5-min Rain = 0
KGO1 062310Z 09011KT 31/18 A3004 RMK A01 T03120175  RH  044%=      5-min Rain = 0
KGO1 062311Z 09010KT 31/18 A3004 RMK A01 T03110180  RH  046%=      5-min Rain = 0
KGO1 062312Z 09011KT 31/18 A3004 RMK A01 T03110181  RH  046%=      5-min Rain = 0
KGO1 062313Z 09012KT 31/18 A3004 RMK A01 T03100180  RH  046%=      5-min Rain = 0
KGO1 062314Z 10012KT 31/18 A3004 RMK A01 T03090179  RH  046%=      5-min Rain = 0
KGO1 062315Z 10012KT 31/17 A3004 RMK A01 T03090174  RH  044%=      5-min Rain = 0
KGO1 062316Z 09010KT 31/17 A3004 RMK A01 T03090174  RH  045%=      5-min Rain = 0
KGO1 062317Z 08009KT 31/18 A3003 RMK A01 T03080176  RH  045%=      5-min Rain = 0
KGO1 062318Z 08010KT 31/17 A3003 RMK A01 T03090172  RH  044%=      5-min Rain = 0
KGO1 062319Z 08009KT 31/18 A3003 RMK A01 T03090176  RH  045%=      5-min Rain = 0
KGO1 062320Z 09010KT 31/18 A3003 RMK A01 T03110176  RH  045%=      5-min Rain = 0
KGO1 062321Z 09009KT 31/18 A3003 RMK A01 T03110177  RH  045%=      5-min Rain = 0
KGO1 062322Z 10011KT 31/17 A3003 RMK A01 T03100174  RH  044%=      5-min Rain = 0
KGO1 062323Z 10010KT 31/17 A3003 RMK A01 T03100171  RH  043%=      5-min Rain = 0
KGO1 062324Z 10011KT 31/17 A3003 RMK A01 T03100173  RH  044%=      5-min Rain = 0
KGO1 062325Z 09010KT 31/17 A3003 RMK A01 T03090174  RH  045%=      5-min Rain = 0
KGO1 062326Z 10009KT 31/18 A3003 RMK A01 T03080176  RH  045%=      5-min Rain = 0
KGO1 062327Z 11011KT 31/18 A3003 RMK A01 T03070176  RH  045%=      5-min Rain = 0
KGO1 062328Z 11012KT 31/18 A3003 RMK A01 T03070175  RH  045%=      5-min Rain = 0
KGO1 062329Z 11010KT 31/17 A3003 RMK A01 T03060174  RH  045%=      5-min Rain = 0
KGO1 062330Z 10010KT 31/17 A3003 RMK A01 T03050174  RH  045%=      5-min Rain = 0
KGO1 062331Z 10011KT 31/17 A3003 RMK A01 T03060173  RH  045%=      5-min Rain = 0
KGO1 062332Z 11012KT 31/18 A3003 RMK A01 T03080175  RH  045%=      5-min Rain = 0
KGO1 062333Z 11012KT 31/17 A3003 RMK A01 T03080171  RH  044%=      5-min Rain = 0
KGO1 062334Z 11010KT 31/17 A3003 RMK A01 T03070172  RH  044%=      5-min Rain = 0
KGO1 062335Z 10012KT 31/17 A3003 RMK A01 T03080171  RH  044%=      5-min Rain = 0
KGO1 062336Z 10012KT 31/17 A3003 RMK A01 T03090167  RH  043%=      5-min Rain = 0
KGO1 062337Z 09011KT 31/17 A3003 RMK A01 T03080169  RH  043%=      5-min Rain = 0
KGO1 062338Z 09010KT 31/17 A3003 RMK A01 T03070168  RH  043%=      5-min Rain = 0
KGO1 062339Z 10008KT 31/17 A3003 RMK A01 T03060171  RH  044%=      5-min Rain = 0
KGO1 062340Z 11010KT 31/17 A3003 RMK A01 T03060170  RH  044%=      5-min Rain = 0
KGO1 062341Z 10010KT 31/17 A3003 RMK A01 T03070165  RH  042%=      5-min Rain = 0
KGO1 062342Z 10009KT 31/16 A3003 RMK A01 T03080164  RH  042%=      5-min Rain = 0
KGO1 062343Z 10009KT 31/17 A3003 RMK A01 T03080169  RH  043%=      5-min Rain = 0
KGO1 062344Z 10011KT 31/17 A3003 RMK A01 T03080170  RH  044%=      5-min Rain = 0
KGO1 062345Z 11010KT 31/17 A3003 RMK A01 T03080166  RH  043%=      5-min Rain = 0
KGO1 062346Z 11010KT 31/17 A3003 RMK A01 T03070168  RH  043%=      5-min Rain = 0
KGO1 062347Z 11011KT 31/17 A3003 RMK A01 T03050171  RH  044%=      5-min Rain = 0
KGO1 062348Z 12010KT 31/17 A3003 RMK A01 T03050173  RH  045%=      5-min Rain = 0
KGO1 062349Z 10011KT 31/17 A3003 RMK A01 T03050174  RH  045%=      5-min Rain = 0
KGO1 062350Z 12012KT 31/17 A3003 RMK A01 T03060170  RH  044%=      5-min Rain = 0
KGO1 062351Z 10013KT 31/17 A3003 RMK A01 T03050171  RH  044%=      5-min Rain = 0
KGO1 062352Z 10011KT 31/17 A3003 RMK A01 T03050169  RH  044%=      5-min Rain = 0
KGO1 062353Z 11010KT 30/17 A3003 RMK A01 T03030171  RH  045%=      5-min Rain = 0
KGO1 062354Z 11009KT 30/17 A3003 RMK A01 T03040171  RH  045%=      5-min Rain = 0
KGO1 062355Z 11009KT 30/17 A3003 RMK A01 T03030174  RH  046%=      5-min Rain = 0
KGO1 062356Z 10012KT 30/18 A3003 RMK A01 T03030176  RH  047%=      5-min Rain = 0
KGO1 062357Z 11008KT 30/18 A3003 RMK A01 T03030176  RH  047%=      5-min Rain = 0
KGO1 062358Z 11008KT 30/17 A3003 RMK A01 T03030174  RH  046%=      5-min Rain = 0
KGO1 062359Z 11010KT 30/17 A3003 RMK A01 T03040169  RH  044%=      5-min Rain = 0
KGO1 070000Z 10008KT 30/17 A3003 RMK A01 T03040171  RH  045%=      5-min Rain = 0
KGO1 070001Z 09012KT 31/18 A3003 RMK A01 T03060179  RH  047%=      5-min Rain = 0
KGO1 070002Z 09011KT 31/19 A3003 RMK A01 T03050185  RH  049%=      5-min Rain = 0
KGO1 070003Z 10014KT 31/19 A3003 RMK A01 T03050190  RH  050%=      5-min Rain = 0
KGO1 070004Z 10012KT 30/19 A3003 RMK A01 T03020190  RH  051%=      5-min Rain = 0
KGO1 070005Z 09013KT 30/19 A3003 RMK A01 T03010190  RH  052%=      5-min Rain = 0
KGO1 070006Z 09013KT 30/19 A3003 RMK A01 T03000190  RH  052%=      5-min Rain = 0
KGO1 070007Z 10013KT 30/19 A3003 RMK A01 T02990191  RH  052%=      5-min Rain = 0
KGO1 070008Z 10011KT 30/19 A3003 RMK A01 T02990191  RH  052%=      5-min Rain = 0
KGO1 070009Z 10014KT 30/19 A3002 RMK A01 T03000189  RH  051%=      5-min Rain = 0
KGO1 070010Z 10015KT 30/19 A3002 RMK A01 T03000190  RH  052%=      5-min Rain = 0
KGO1 070011Z 10015KT 30/19 A3002 RMK A01 T02980190  RH  052%=      5-min Rain = 0
KGO1 070012Z 11014KT 30/19 A3002 RMK A01 T02970188  RH  052%=      5-min Rain = 0
KGO1 070013Z 11014KT 30/19 A3002 RMK A01 T02960186  RH  052%=      5-min Rain = 0
KGO1 070014Z 11011KT 30/19 A3002 RMK A01 T02950187  RH  052%=      5-min Rain = 0
KGO1 070015Z 11012KT 30/19 A3002 RMK A01 T02950186  RH  052%=      5-min Rain = 0
KGO1 070016Z 11012KT 30/19 A3002 RMK A01 T02960185  RH  051%=      5-min Rain = 0
KGO1 070017Z 11014KT 30/18 A3002 RMK A01 T02970184  RH  051%=      5-min Rain = 0
KGO1 070018Z 10012KT 30/18 A3002 RMK A01 T02960184  RH  051%=      5-min Rain = 0
KGO1 070019Z 10014KT 30/18 A3002 RMK A01 T02950184  RH  051%=      5-min Rain = 0
KGO1 070020Z 10013KT 29/18 A3002 RMK A01 T02940184  RH  051%=      5-min Rain = 0
KGO1 070021Z 10013KT 29/18 A3002 RMK A01 T02940183  RH  051%=      5-min Rain = 0
KGO1 070022Z 11012KT 29/18 A3002 RMK A01 T02940184  RH  052%=      5-min Rain = 0
KGO1 070023Z 11012KT 29/18 A3002 RMK A01 T02940183  RH  051%=      5-min Rain = 0
KGO1 070024Z 11010KT 29/18 A3002 RMK A01 T02940181  RH  051%=      5-min Rain = 0
KGO1 070025Z 11013KT 30/18 A3002 RMK A01 T02950181  RH  050%=      5-min Rain = 0
KGO1 070026Z 10012KT 30/18 A3002 RMK A01 T02950181  RH  050%=      5-min Rain = 0
KGO1 070027Z 11011KT 30/18 A3002 RMK A01 T02950181  RH  051%=      5-min Rain = 0
KGO1 070028Z 12011KT 30/18 A3002 RMK A01 T02950182  RH  051%=      5-min Rain = 0
KGO1 070029Z 12012KT 30/18 A3002 RMK A01 T02960180  RH  050%=      5-min Rain = 0
KGO1 070030Z 12010KT 30/18 A3002 RMK A01 T02950178  RH  049%=      5-min Rain = 0
KGO1 070031Z 11009KT 29/18 A3002 RMK A01 T02940180  RH  050%=      5-min Rain = 0
KGO1 070032Z 11013KT 30/18 A3002 RMK A01 T02950180  RH  050%=      5-min Rain = 0
KGO1 070033Z 10012KT 30/18 A3002 RMK A01 T02950179  RH  049%=      5-min Rain = 0
KGO1 070034Z 10012KT 29/18 A3002 RMK A01 T02940178  RH  050%=      5-min Rain = 0
KGO1 070035Z 10012KT 29/18 A3002 RMK A01 T02930176  RH  049%=      5-min Rain = 0
KGO1 070036Z 10012KT 29/17 A3002 RMK A01 T02920173  RH  049%=      5-min Rain = 0
KGO1 070037Z 10011KT 29/17 A3002 RMK A01 T02930171  RH  048%=      5-min Rain = 0
KGO1 070038Z 09011KT 29/17 A3002 RMK A01 T02920172  RH  048%=      5-min Rain = 0
KGO1 070039Z 10010KT 29/17 A3002 RMK A01 T02920173  RH  049%=      5-min Rain = 0
KGO1 070040Z 10012KT 29/17 A3003 RMK A01 T02920171  RH  048%=      5-min Rain = 0
KGO1 070041Z 10012KT 29/17 A3003 RMK A01 T02930169  RH  047%=      5-min Rain = 0
KGO1 070042Z 09010KT 29/17 A3003 RMK A01 T02930170  RH  048%=      5-min Rain = 0
KGO1 070043Z 10013KT 29/17 A3003 RMK A01 T02920169  RH  047%=      5-min Rain = 0
KGO1 070044Z 10012KT 29/17 A3003 RMK A01 T02920170  RH  048%=      5-min Rain = 0
KGO1 070045Z 10011KT 29/17 A3003 RMK A01 T02910171  RH  048%=      5-min Rain = 0
KGO1 070046Z 10011KT 29/17 A3003 RMK A01 T02910171  RH  048%=      5-min Rain = 0
KGO1 070047Z 10011KT 29/17 A3003 RMK A01 T02910171  RH  048%=      5-min Rain = 0
KGO1 070048Z 10012KT 29/17 A3003 RMK A01 T02910170  RH  048%=      5-min Rain = 0
KGO1 070049Z 10013KT 29/17 A3003 RMK A01 T02900169  RH  048%=      5-min Rain = 0
KGO1 070050Z 10010KT 29/17 A3003 RMK A01 T02900170  RH  048%=      5-min Rain = 0
KGO1 070051Z 10010KT 29/17 A3003 RMK A01 T02900170  RH  048%=      5-min Rain = 0
KGO1 070052Z 10012KT 29/17 A3003 RMK A01 T02900168  RH  048%=      5-min Rain = 0
KGO1 070053Z 10011KT 29/17 A3003 RMK A01 T02900169  RH  048%=      5-min Rain = 0
KGO1 070054Z 10011KT 29/17 A3003 RMK A01 T02900169  RH  048%=      5-min Rain = 0
KGO1 070055Z 11011KT 29/17 A3003 RMK A01 T02900171  RH  049%=      5-min Rain = 0
KGO1 070056Z 11011KT 29/17 A3003 RMK A01 T02900171  RH  049%=      5-min Rain = 0
KGO1 070057Z 10011KT 29/17 A3003 RMK A01 T02900169  RH  048%=      5-min Rain = 0
KGO1 070058Z 11011KT 29/17 A3003 RMK A01 T02900170  RH  048%=      5-min Rain = 0
KGO1 070059Z 11011KT 29/17 A3003 RMK A01 T02890170  RH  048%=      5-min Rain = 0
KGO1 070100Z 11009KT 29/17 A3003 RMK A01 T02890171  RH  049%=      5-min Rain = 0
KGO1 070101Z 11011KT 29/17 A3003 RMK A01 T02890171  RH  049%=      5-min Rain = 0
KGO1 070102Z 11010KT 29/17 A3003 RMK A01 T02890172  RH  049%=      5-min Rain = 0
KGO1 070103Z 11012KT 29/17 A3003 RMK A01 T02890173  RH  050%=      5-min Rain = 0
KGO1 070104Z 10011KT 29/17 A3003 RMK A01 T02880173  RH  050%=      5-min Rain = 0
KGO1 070105Z 11010KT 29/17 A3003 RMK A01 T02880173  RH  050%=      5-min Rain = 0
KGO1 070106Z 11010KT 29/17 A3003 RMK A01 T02880173  RH  050%=      5-min Rain = 0
KGO1 070107Z 12011KT 29/17 A3003 RMK A01 T02880173  RH  050%=      5-min Rain = 0
KGO1 070108Z 12010KT 29/17 A3003 RMK A01 T02880173  RH  050%=      5-min Rain = 0
KGO1 070109Z 11010KT 29/17 A3004 RMK A01 T02870174  RH  050%=      5-min Rain = 0
KGO1 070110Z 11010KT 29/17 A3004 RMK A01 T02870174  RH  051%=      5-min Rain = 0
KGO1 070111Z 10009KT 29/18 A3004 RMK A01 T02870175  RH  051%=      5-min Rain = 0
KGO1 070112Z 11011KT 29/18 A3004 RMK A01 T02870176  RH  051%=      5-min Rain = 0
KGO1 070113Z 11011KT 29/18 A3004 RMK A01 T02870175  RH  051%=      5-min Rain = 0
KGO1 070114Z 10010KT 29/17 A3004 RMK A01 T02860174  RH  051%=      5-min Rain = 0
KGO1 070115Z 11010KT 29/18 A3004 RMK A01 T02860175  RH  051%=      5-min Rain = 0
KGO1 070116Z 11012KT 29/17 A3004 RMK A01 T02860174  RH  051%=      5-min Rain = 0
KGO1 070117Z 11010KT 29/17 A3004 RMK A01 T02850174  RH  051%=      5-min Rain = 0
KGO1 070118Z 10010KT 29/18 A3004 RMK A01 T02850175  RH  051%=      5-min Rain = 0
KGO1 070119Z 11008KT 28/18 A3004 RMK A01 T02840176  RH  052%=      5-min Rain = 0
KGO1 070120Z 11011KT 28/18 A3004 RMK A01 T02840177  RH  052%=      5-min Rain = 0
KGO1 070121Z 10012KT 28/18 A3004 RMK A01 T02840176  RH  052%=      5-min Rain = 0
KGO1 070122Z 11010KT 28/18 A3004 RMK A01 T02830178  RH  053%=      5-min Rain = 0
KGO1 070123Z 10010KT 28/18 A3004 RMK A01 T02830178  RH  053%=      5-min Rain = 0
KGO1 070124Z 09010KT 28/18 A3004 RMK A01 T02820180  RH  054%=      5-min Rain = 0
KGO1 070125Z 09008KT 28/18 A3004 RMK A01 T02810182  RH  055%=      5-min Rain = 0
KGO1 070126Z 08010KT 28/19 A3004 RMK A01 T02790185  RH  056%=      5-min Rain = 0
KGO1 070127Z 08009KT 28/19 A3004 RMK A01 T02780187  RH  058%=      5-min Rain = 0
KGO1 070128Z 09008KT 28/19 A3004 RMK A01 T02760187  RH  058%=      5-min Rain = 0
KGO1 070129Z 09009KT 28/19 A3004 RMK A01 T02750188  RH  059%=      5-min Rain = 0
KGO1 070130Z 09008KT 27/19 A3004 RMK A01 T02740188  RH  059%=      5-min Rain = 0
KGO1 070131Z 09009KT 27/19 A3004 RMK A01 T02730189  RH  060%=      5-min Rain = 0
KGO1 070132Z 09011KT 27/19 A3004 RMK A01 T02730189  RH  060%=      5-min Rain = 0
KGO1 070133Z 09010KT 27/19 A3004 RMK A01 T02730189  RH  060%=      5-min Rain = 0
KGO1 070134Z 09008KT 27/19 A3004 RMK A01 T02720190  RH  061%=      5-min Rain = 0
KGO1 070135Z 09008KT 27/19 A3004 RMK A01 T02720190  RH  061%=      5-min Rain = 0
KGO1 070136Z 09007KT 27/19 A3004 RMK A01 T02720190  RH  061%=      5-min Rain = 0
KGO1 070137Z 09008KT 27/19 A3004 RMK A01 T02710191  RH  061%=      5-min Rain = 0
KGO1 070138Z 09010KT 27/19 A3004 RMK A01 T02700191  RH  062%=      5-min Rain = 0
KGO1 070139Z 10010KT 27/19 A3004 RMK A01 T02700190  RH  062%=      5-min Rain = 0
KGO1 070140Z 10009KT 27/19 A3004 RMK A01 T02700191  RH  062%=      5-min Rain = 0
KGO1 070141Z 10009KT 27/19 A3004 RMK A01 T02690191  RH  062%=      5-min Rain = 0
KGO1 070142Z 09009KT 27/19 A3004 RMK A01 T02690191  RH  062%=      5-min Rain = 0
KGO1 070143Z 09008KT 27/19 A3004 RMK A01 T02690192  RH  063%=      5-min Rain = 0
KGO1 070144Z 09008KT 27/19 A3004 RMK A01 T02680192  RH  063%=      5-min Rain = 0
KGO1 070145Z 09008KT 27/19 A3004 RMK A01 T02670192  RH  064%=      5-min Rain = 0
KGO1 070146Z 09008KT 27/19 A3004 RMK A01 T02660192  RH  064%=      5-min Rain = 0
KGO1 070147Z 09008KT 27/19 A3005 RMK A01 T02660192  RH  064%=      5-min Rain = 0
KGO1 070148Z 08007KT 27/19 A3005 RMK A01 T02650193  RH  064%=      5-min Rain = 0
KGO1 070149Z 08006KT 27/19 A3005 RMK A01 T02650193  RH  065%=      5-min Rain = 0
KGO1 070150Z 08007KT 26/19 A3005 RMK A01 T02640193  RH  065%=      5-min Rain = 0
KGO1 070151Z 08007KT 26/19 A3005 RMK A01 T02630193  RH  065%=      5-min Rain = 0
KGO1 070152Z 09007KT 26/19 A3005 RMK A01 T02630193  RH  066%=      5-min Rain = 0
KGO1 070153Z 08006KT 26/19 A3005 RMK A01 T02620193  RH  066%=      5-min Rain = 0
KGO1 070154Z 08006KT 26/19 A3005 RMK A01 T02620194  RH  066%=      5-min Rain = 0
KGO1 070155Z 08006KT 26/19 A3005 RMK A01 T02620194  RH  066%=      5-min Rain = 0
KGO1 070156Z 08006KT 26/19 A3005 RMK A01 T02610194  RH  066%=      5-min Rain = 0
KGO1 070157Z 09006KT 26/19 A3005 RMK A01 T02610194  RH  067%=      5-min Rain = 0
KGO1 070158Z 09006KT 26/19 A3005 RMK A01 T02600194  RH  067%=      5-min Rain = 0
KGO1 070159Z 08006KT 26/19 A3005 RMK A01 T02590194  RH  067%=      5-min Rain = 0
KGO1 070200Z 09007KT 26/19 A3005 RMK A01 T02590194  RH  068%=      5-min Rain = 0
KGO1 070201Z 09006KT 26/19 A3005 RMK A01 T02580194  RH  068%=      5-min Rain = 0
KGO1 070202Z 08006KT 26/19 A3005 RMK A01 T02580194  RH  068%=      5-min Rain = 0
KGO1 070203Z 08006KT 26/19 A3005 RMK A01 T02580194  RH  068%=      5-min Rain = 0
KGO1 070204Z 08006KT 26/19 A3005 RMK A01 T02570194  RH  068%=      5-min Rain = 0
KGO1 070205Z 08006KT 26/19 A3005 RMK A01 T02570194  RH  068%=      5-min Rain = 0
KGO1 070206Z 08006KT 26/19 A3005 RMK A01 T02560194  RH  069%=      5-min Rain = 0
KGO1 070207Z 08005KT 26/20 A3005 RMK A01 T02560195  RH  069%=      5-min Rain = 0
KGO1 070208Z 08006KT 26/20 A3005 RMK A01 T02550195  RH  069%=      5-min Rain = 0
KGO1 070209Z 09005KT 26/20 A3005 RMK A01 T02550195  RH  069%=      5-min Rain = 0
KGO1 070210Z 09005KT 26/20 A3005 RMK A01 T02550195  RH  069%=      5-min Rain = 0
KGO1 070211Z 08005KT 25/20 A3005 RMK A01 T02540195  RH  070%=      5-min Rain = 0
KGO1 070212Z 08006KT 25/20 A3005 RMK A01 T02540195  RH  070%=      5-min Rain = 0
KGO1 070213Z 09005KT 25/20 A3005 RMK A01 T02540195  RH  070%=      5-min Rain = 0
KGO1 070214Z 09006KT 25/20 A3006 RMK A01 T02530195  RH  070%=      5-min Rain = 0
KGO1 070215Z 09006KT 25/20 A3006 RMK A01 T02530195  RH  070%=      5-min Rain = 0
KGO1 070216Z 09006KT 25/20 A3006 RMK A01 T02530195  RH  070%=      5-min Rain = 0
KGO1 070217Z 09006KT 25/20 A3006 RMK A01 T02530195  RH  070%=      5-min Rain = 0
KGO1 070218Z 09006KT 25/19 A3006 RMK A01 T02530194  RH  070%=      5-min Rain = 0
KGO1 070219Z 09006KT 25/19 A3006 RMK A01 T02520194  RH  070%=      5-min Rain = 0
KGO1 070220Z 09006KT 25/20 A3006 RMK A01 T02520195  RH  071%=      5-min Rain = 0
KGO1 070221Z 09006KT 25/19 A3006 RMK A01 T02510194  RH  071%=      5-min Rain = 0
KGO1 070222Z 09006KT 25/19 A3006 RMK A01 T02510194  RH  071%=      5-min Rain = 0
KGO1 070223Z 09006KT 25/19 A3006 RMK A01 T02500194  RH  071%=      5-min Rain = 0
KGO1 070224Z 09006KT 25/19 A3006 RMK A01 T02500194  RH  071%=      5-min Rain = 0
KGO1 070225Z 09007KT 25/19 A3006 RMK A01 T02500194  RH  071%=      5-min Rain = 0
KGO1 070226Z 09007KT 25/19 A3006 RMK A01 T02500192  RH  070%=      5-min Rain = 0
KGO1 070227Z 10007KT 25/19 A3006 RMK A01 T02500192  RH  070%=      5-min Rain = 0
KGO1 070228Z 09007KT 25/19 A3006 RMK A01 T02500192  RH  070%=      5-min Rain = 0
KGO1 070229Z 10007KT 25/19 A3006 RMK A01 T02500192  RH  070%=      5-min Rain = 0
KGO1 070230Z 09007KT 25/19 A3006 RMK A01 T02500192  RH  070%=      5-min Rain = 0
KGO1 070231Z 10007KT 25/19 A3006 RMK A01 T02500191  RH  070%=      5-min Rain = 0
KGO1 070232Z 10007KT 25/19 A3006 RMK A01 T02500192  RH  070%=      5-min Rain = 0
KGO1 070233Z 10007KT 25/19 A3006 RMK A01 T02500192  RH  070%=      5-min Rain = 0
KGO1 070234Z 10007KT 25/19 A3007 RMK A01 T02500192  RH  070%=      5-min Rain = 0
KGO1 070235Z 10007KT 25/19 A3007 RMK A01 T02500192  RH  070%=      5-min Rain = 0
KGO1 070236Z 11006KT 25/19 A3007 RMK A01 T02500193  RH  071%=      5-min Rain = 0
KGO1 070237Z 11006KT 25/19 A3007 RMK A01 T02490192  RH  071%=      5-min Rain = 0
KGO1 070238Z 11006KT 25/19 A3007 RMK A01 T02490192  RH  071%=      5-min Rain = 0
KGO1 070239Z 11006KT 25/19 A3007 RMK A01 T02490193  RH  071%=      5-min Rain = 0
KGO1 070240Z 11006KT 25/19 A3007 RMK A01 T02480193  RH  071%=      5-min Rain = 0
KGO1 070241Z 11005KT 25/19 A3007 RMK A01 T02480193  RH  071%=      5-min Rain = 0
KGO1 070242Z 11006KT 25/19 A3007 RMK A01 T02470193  RH  072%=      5-min Rain = 0
KGO1 070243Z 11007KT 25/19 A3007 RMK A01 T02470193  RH  072%=      5-min Rain = 0
KGO1 070244Z 11007KT 25/19 A3007 RMK A01 T02460193  RH  072%=      5-min Rain = 0
KGO1 070245Z 11006KT 25/19 A3007 RMK A01 T02450193  RH  072%=      5-min Rain = 0
KGO1 070246Z 11006KT 25/19 A3007 RMK A01 T02450193  RH  073%=      5-min Rain = 0
KGO1 070247Z 11006KT 24/19 A3007 RMK A01 T02440193  RH  073%=      5-min Rain = 0
KGO1 070248Z 11006KT 24/19 A3007 RMK A01 T02440193  RH  073%=      5-min Rain = 0
KGO1 070249Z 11006KT 24/19 A3007 RMK A01 T02430193  RH  073%=      5-min Rain = 0
KGO1 070250Z 11005KT 24/19 A3007 RMK A01 T02430193  RH  073%=      5-min Rain = 0
KGO1 070251Z 11006KT 24/19 A3007 RMK A01 T02430193  RH  074%=      5-min Rain = 0
KGO1 070252Z 11005KT 24/19 A3007 RMK A01 T02430193  RH  074%=      5-min Rain = 0
KGO1 070253Z 11005KT 24/19 A3007 RMK A01 T02420193  RH  074%=      5-min Rain = 0
KGO1 070254Z 11005KT 24/19 A3007 RMK A01 T02420193  RH  074%=      5-min Rain = 0
KGO1 070255Z 11005KT 24/19 A3007 RMK A01 T02410193  RH  074%=      5-min Rain = 0
KGO1 070256Z 11005KT 24/19 A3007 RMK A01 T02410193  RH  074%=      5-min Rain = 0
KGO1 070257Z 11005KT 24/19 A3007 RMK A01 T02410193  RH  075%=      5-min Rain = 0
KGO1 070258Z 11005KT 24/19 A3007 RMK A01 T02400193  RH  075%=      5-min Rain = 0
KGO1 070259Z 11005KT 24/19 A3007 RMK A01 T02400193  RH  075%=      5-min Rain = 0
KGO1 070300Z 11006KT 24/19 A3007 RMK A01 T02390193  RH  075%=      5-min Rain = 0
KGO1 070301Z 11006KT 24/19 A3007 RMK A01 T02390193  RH  075%=      5-min Rain = 0
KGO1 070302Z 11006KT 24/19 A3007 RMK A01 T02390193  RH  075%=      5-min Rain = 0
KGO1 070303Z 11006KT 24/19 A3007 RMK A01 T02380193  RH  075%=      5-min Rain = 0
KGO1 070304Z 11006KT 24/19 A3007 RMK A01 T02390193  RH  076%=      5-min Rain = 0
KGO1 070305Z 11006KT 24/19 A3007 RMK A01 T02390193  RH  076%=      5-min Rain = 0
KGO1 070306Z 11006KT 24/19 A3007 RMK A01 T02380193  RH  076%=      5-min Rain = 0
KGO1 070307Z 12006KT 24/19 A3007 RMK A01 T02380193  RH  076%=      5-min Rain = 0
KGO1 070308Z 11006KT 24/19 A3008 RMK A01 T02380193  RH  076%=      5-min Rain = 0
KGO1 070309Z 12005KT 24/19 A3008 RMK A01 T02380193  RH  076%=      5-min Rain = 0
KGO1 070310Z 12005KT 24/19 A3008 RMK A01 T02380193  RH  076%=      5-min Rain = 0
KGO1 070311Z 11005KT 24/19 A3008 RMK A01 T02380193  RH  076%=      5-min Rain = 0
KGO1 070312Z 11005KT 24/19 A3008 RMK A01 T02380193  RH  076%=      5-min Rain = 0
KGO1 070313Z 11005KT 24/19 A3008 RMK A01 T02370193  RH  076%=      5-min Rain = 0
KGO1 070314Z 10005KT 24/19 A3008 RMK A01 T02370193  RH  076%=      5-min Rain = 0
KGO1 070315Z 10005KT 24/19 A3008 RMK A01 T02370192  RH  076%=      5-min Rain = 0
KGO1 070316Z 10006KT 24/19 A3008 RMK A01 T02370193  RH  076%=      5-min Rain = 0
KGO1 070317Z 11006KT 24/19 A3008 RMK A01 T02370193  RH  076%=      5-min Rain = 0
KGO1 070318Z 11006KT 24/19 A3008 RMK A01 T02370193  RH  076%=      5-min Rain = 0
KGO1 070319Z 10005KT 24/19 A3008 RMK A01 T02370193  RH  076%=      5-min Rain = 0
KGO1 070320Z 10005KT 24/19 A3008 RMK A01 T02370193  RH  076%=      5-min Rain = 0
KGO1 070321Z 10005KT 24/19 A3008 RMK A01 T02360193  RH  076%=      5-min Rain = 0
KGO1 070322Z 10004KT 24/19 A3008 RMK A01 T02360193  RH  077%=      5-min Rain = 0
KGO1 070323Z 10004KT 24/19 A3008 RMK A01 T02350193  RH  077%=      5-min Rain = 0
KGO1 070324Z 10004KT 24/19 A3008 RMK A01 T02350193  RH  078%=      5-min Rain = 0
KGO1 070325Z 11004KT 24/19 A3008 RMK A01 T02350194  RH  078%=      5-min Rain = 0
KGO1 070326Z 11004KT 23/19 A3008 RMK A01 T02340194  RH  078%=      5-min Rain = 0
KGO1 070327Z 11004KT 23/19 A3008 RMK A01 T02340194  RH  078%=      5-min Rain = 0
KGO1 070328Z 11004KT 23/19 A3008 RMK A01 T02340194  RH  078%=      5-min Rain = 0
KGO1 070329Z 11005KT 23/20 A3008 RMK A01 T02340195  RH  079%=      5-min Rain = 0
KGO1 070330Z 12005KT 23/19 A3008 RMK A01 T02340194  RH  078%=      5-min Rain = 0
KGO1 070331Z 11005KT 23/19 A3008 RMK A01 T02330194  RH  079%=      5-min Rain = 0
KGO1 070332Z 12005KT 23/19 A3008 RMK A01 T02330194  RH  079%=      5-min Rain = 0
KGO1 070333Z 12005KT 23/19 A3008 RMK A01 T02330194  RH  079%=      5-min Rain = 0
KGO1 070334Z 12005KT 23/19 A3008 RMK A01 T02330194  RH  079%=      5-min Rain = 0
KGO1 070335Z 12005KT 23/19 A3008 RMK A01 T02320194  RH  079%=      5-min Rain = 0
KGO1 070336Z 12005KT 23/19 A3008 RMK A01 T02320194  RH  079%=      5-min Rain = 0
KGO1 070337Z 13005KT 23/19 A3008 RMK A01 T02320194  RH  079%=      5-min Rain = 0
KGO1 070338Z 13005KT 23/19 A3008 RMK A01 T02320193  RH  079%=      5-min Rain = 0
KGO1 070339Z 13005KT 23/19 A3008 RMK A01 T02320193  RH  079%=      5-min Rain = 0
KGO1 070340Z 13005KT 23/19 A3008 RMK A01 T02320193  RH  079%=      5-min Rain = 0
KGO1 070341Z 13005KT 23/19 A3008 RMK A01 T02310192  RH  079%=      5-min Rain = 0
KGO1 070342Z 13005KT 23/19 A3008 RMK A01 T02310192  RH  079%=      5-min Rain = 0
KGO1 070343Z 13005KT 23/19 A3008 RMK A01 T02310192  RH  078%=      5-min Rain = 0
KGO1 070344Z 13005KT 23/19 A3008 RMK A01 T02310192  RH  078%=      5-min Rain = 0
KGO1 070345Z 13005KT 23/19 A3008 RMK A01 T02310191  RH  078%=      5-min Rain = 0
KGO1 070346Z 13005KT 23/19 A3008 RMK A01 T02310191  RH  078%=      5-min Rain = 0
KGO1 070347Z 13005KT 23/19 A3008 RMK A01 T02310191  RH  078%=      5-min Rain = 0
KGO1 070348Z 13005KT 23/19 A3008 RMK A01 T02310190  RH  078%=      5-min Rain = 0
KGO1 070349Z 13005KT 23/19 A3008 RMK A01 T02310190  RH  078%=      5-min Rain = 0
KGO1 070350Z 12005KT 23/19 A3008 RMK A01 T02310190  RH  077%=      5-min Rain = 0
KGO1 070351Z 12005KT 23/19 A3008 RMK A01 T02320190  RH  077%=      5-min Rain = 0
KGO1 070352Z 12005KT 23/19 A3008 RMK A01 T02320190  RH  077%=      5-min Rain = 0
KGO1 070353Z 13006KT 23/19 A3008 RMK A01 T02320190  RH  077%=      5-min Rain = 0
KGO1 070354Z 13006KT 23/19 A3008 RMK A01 T02320190  RH  077%=      5-min Rain = 0
KGO1 070355Z 13006KT 23/19 A3008 RMK A01 T02320190  RH  077%=      5-min Rain = 0
KGO1 070356Z 13006KT 23/19 A3008 RMK A01 T02320190  RH  077%=      5-min Rain = 0
KGO1 070357Z 13006KT 23/19 A3008 RMK A01 T02320190  RH  077%=      5-min Rain = 0
KGO1 070358Z 14007KT 23/19 A3008 RMK A01 T02330190  RH  077%=      5-min Rain = 0
KGO1 070359Z 14007KT 23/19 A3008 RMK A01 T02340190  RH  076%=      5-min Rain = 0
KGO1 070400Z 14007KT 24/19 A3008 RMK A01 T02350190  RH  076%=      5-min Rain = 0
KGO1 070401Z 13008KT 24/19 A3008 RMK A01 T02360190  RH  076%=      5-min Rain = 0
KGO1 070402Z 13008KT 24/19 A3008 RMK A01 T02370190  RH  075%=      5-min Rain = 0
KGO1 070403Z 13007KT 24/19 A3008 RMK A01 T02380190  RH  075%=      5-min Rain = 0
KGO1 070404Z 13008KT 24/19 A3008 RMK A01 T02380190  RH  074%=      5-min Rain = 0
KGO1 070405Z 13008KT 24/19 A3008 RMK A01 T02390190  RH  074%=      5-min Rain = 0
KGO1 070406Z 13009KT 24/19 A3009 RMK A01 T02390190  RH  074%=      5-min Rain = 0
KGO1 070407Z 13008KT 24/19 A3009 RMK A01 T02390190  RH  074%=      5-min Rain = 0
KGO1 070408Z 13009KT 24/19 A3009 RMK A01 T02400191  RH  074%=      5-min Rain = 0
KGO1 070409Z 13009KT 24/19 A3009 RMK A01 T02400191  RH  074%=      5-min Rain = 0
KGO1 070410Z 13008KT 24/19 A3009 RMK A01 T02400190  RH  074%=      5-min Rain = 0
KGO1 070411Z 13009KT 24/19 A3009 RMK A01 T02400191  RH  074%=      5-min Rain = 0
KGO1 070412Z 13008KT 24/19 A3009 RMK A01 T02400191  RH  074%=      5-min Rain = 0
KGO1 070413Z 13008KT 24/19 A3009 RMK A01 T02400191  RH  074%=      5-min Rain = 0
KGO1 070414Z 13007KT 24/19 A3009 RMK A01 T02400191  RH  074%=      5-min Rain = 0
KGO1 070415Z 14007KT 24/19 A3009 RMK A01 T02400192  RH  074%=      5-min Rain = 0
KGO1 070416Z 14007KT 24/19 A3009 RMK A01 T02390192  RH  075%=      5-min Rain = 0
KGO1 070417Z 14008KT 24/19 A3009 RMK A01 T02390192  RH  075%=      5-min Rain = 0
KGO1 070418Z 14008KT 24/19 A3009 RMK A01 T02390192  RH  075%=      5-min Rain = 0
KGO1 070419Z 14007KT 24/19 A3009 RMK A01 T02400192  RH  075%=      5-min Rain = 0
KGO1 070420Z 14007KT 24/19 A3009 RMK A01 T02400192  RH  075%=      5-min Rain = 0
KGO1 070421Z 14007KT 24/19 A3009 RMK A01 T02390192  RH  075%=      5-min Rain = 0
KGO1 070422Z 14007KT 24/19 A3009 RMK A01 T02390192  RH  075%=      5-min Rain = 0
KGO1 070423Z 15007KT 24/19 A3009 RMK A01 T02380192  RH  075%=      5-min Rain = 0
KGO1 070424Z 15007KT 24/19 A3009 RMK A01 T02380193  RH  076%=      5-min Rain = 0
KGO1 070425Z 15007KT 24/19 A3009 RMK A01 T02380192  RH  076%=      5-min Rain = 0
KGO1 070426Z 15007KT 24/19 A3009 RMK A01 T02380192  RH  076%=      5-min Rain = 0
KGO1 070427Z 15008KT 24/19 A3009 RMK A01 T02380192  RH  076%=      5-min Rain = 0
KGO1 070428Z 15007KT 24/19 A3009 RMK A01 T02380192  RH  075%=      5-min Rain = 0
KGO1 070429Z 15008KT 24/19 A3008 RMK A01 T02380192  RH  075%=      5-min Rain = 0
KGO1 070430Z 15007KT 24/19 A3008 RMK A01 T02380192  RH  075%=      5-min Rain = 0
KGO1 070431Z 15007KT 24/19 A3008 RMK A01 T02380192  RH  075%=      5-min Rain = 0
KGO1 070432Z 15008KT 24/19 A3008 RMK A01 T02380193  RH  076%=      5-min Rain = 0
KGO1 070433Z 15007KT 24/19 A3008 RMK A01 T02380193  RH  076%=      5-min Rain = 0
KGO1 070434Z 16007KT 24/19 A3008 RMK A01 T02380193  RH  076%=      5-min Rain = 0
KGO1 070435Z 15008KT 24/19 A3008 RMK A01 T02380193  RH  076%=      5-min Rain = 0
KGO1 070436Z 16008KT 24/19 A3008 RMK A01 T02380193  RH  076%=      5-min Rain = 0
KGO1 070437Z 16008KT 24/19 A3008 RMK A01 T02380194  RH  076%=      5-min Rain = 0
KGO1 070438Z 15008KT 24/19 A3008 RMK A01 T02380193  RH  076%=      5-min Rain = 0
KGO1 070439Z 15008KT 24/19 A3008 RMK A01 T02380193  RH  076%=      5-min Rain = 0
KGO1 070440Z 15007KT 24/19 A3008 RMK A01 T02380193  RH  076%=      5-min Rain = 0
KGO1 070441Z 16007KT 24/19 A3008 RMK A01 T02380194  RH  076%=      5-min Rain = 0
KGO1 070442Z 16007KT 24/19 A3008 RMK A01 T02370193  RH  076%=      5-min Rain = 0
KGO1 070443Z 16007KT 24/19 A3008 RMK A01 T02370193  RH  077%=      5-min Rain = 0
KGO1 070444Z 16007KT 24/19 A3008 RMK A01 T02370194  RH  077%=      5-min Rain = 0
KGO1 070445Z 16007KT 24/19 A3008 RMK A01 T02370194  RH  077%=      5-min Rain = 0
KGO1 070446Z 15007KT 24/19 A3009 RMK A01 T02360194  RH  077%=      5-min Rain = 0
KGO1 070447Z 15007KT 24/19 A3009 RMK A01 T02360194  RH  077%=      5-min Rain = 0
KGO1 070448Z 16006KT 24/19 A3009 RMK A01 T02360194  RH  077%=      5-min Rain = 0
KGO1 070449Z 15007KT 24/19 A3009 RMK A01 T02350194  RH  077%=      5-min Rain = 0
KGO1 070450Z 15007KT 24/19 A3009 RMK A01 T02350194  RH  078%=      5-min Rain = 0
KGO1 070451Z 16006KT 23/19 A3009 RMK A01 T02340194  RH  078%=      5-min Rain = 0
KGO1 070452Z 16006KT 23/19 A3009 RMK A01 T02340194  RH  078%=      5-min Rain = 0
KGO1 070453Z 16006KT 23/19 A3009 RMK A01 T02340194  RH  078%=      5-min Rain = 0
KGO1 070454Z 16006KT 23/19 A3009 RMK A01 T02340194  RH  078%=      5-min Rain = 0
KGO1 070455Z 16007KT 23/19 A3009 RMK A01 T02330194  RH  078%=      5-min Rain = 0
KGO1 070456Z 16006KT 23/19 A3009 RMK A01 T02330193  RH  078%=      5-min Rain = 0
KGO1 070457Z 16006KT 23/19 A3009 RMK A01 T02330193  RH  078%=      5-min Rain = 0
KGO1 070458Z 17007KT 23/19 A3009 RMK A01 T02330193  RH  079%=      5-min Rain = 0
KGO1 070459Z 17006KT 23/19 A3009 RMK A01 T02320193  RH  079%=      5-min Rain = 0

Page generated in 0.0997 seconds.